<?xml version='1.0' encoding='UTF-8'?><gpx version="1.1" creator="JPX - https://github.com/jenetics/jpx" xmlns="http://www.topografix.com/GPX/1/1"><trk><trkseg><trkpt lat="43.377473524342896" lon="12.782855349694419"><ele>629.0</ele><time>2026-04-08T07:47:22Z</time></trkpt><trkpt lat="43.37753686987243" lon="12.782842507883691"><ele>629.0</ele><time>2026-04-08T07:47:33.999Z</time></trkpt><trkpt lat="43.37759594601479" lon="12.782804535539206"><ele>629.0</ele><time>2026-04-08T07:47:45.999Z</time></trkpt><trkpt lat="43.37765921806649" lon="12.782788887017135"><ele>629.0</ele><time>2026-04-08T07:47:54Z</time></trkpt><trkpt lat="43.37772809787378" lon="12.782786489849958"><ele>629.0</ele><time>2026-04-08T07:48:02Z</time></trkpt><trkpt lat="43.37779256610632" lon="12.782764407095053"><ele>629.0</ele><time>2026-04-08T07:48:10Z</time></trkpt><trkpt lat="43.3778535622368" lon="12.782739314105966"><ele>629.0</ele><time>2026-04-08T07:48:20Z</time></trkpt><trkpt lat="43.37791309048205" lon="12.78270024303988"><ele>629.0</ele><time>2026-04-08T07:48:29Z</time></trkpt><trkpt lat="43.3779767661654" lon="12.782686144845492"><ele>629.0</ele><time>2026-04-08T07:48:36Z</time></trkpt><trkpt lat="43.378037992191025" lon="12.782662808192898"><ele>629.0</ele><time>2026-04-08T07:48:45Z</time></trkpt><trkpt lat="43.37810679474371" lon="12.782647442827365"><ele>629.0</ele><time>2026-04-08T07:48:54Z</time></trkpt><trkpt lat="43.37816988420925" lon="12.78263958463572"><ele>629.0</ele><time>2026-04-08T07:49:05Z</time></trkpt><trkpt lat="43.378242247662044" lon="12.782632949574177"><ele>629.0</ele><time>2026-04-08T07:49:26Z</time></trkpt><trkpt lat="43.37832567221719" lon="12.782647705848612"><ele>629.0</ele><time>2026-04-08T07:49:40Z</time></trkpt><trkpt lat="43.378352081683865" lon="12.782552555409024"><ele>632.0</ele><time>2026-04-08T07:49:51Z</time></trkpt><trkpt lat="43.37840699183966" lon="12.78249933978637"><ele>635.0</ele><time>2026-04-08T07:49:59.999Z</time></trkpt><trkpt lat="43.378453160010125" lon="12.78243400548944"><ele>638.0</ele><time>2026-04-08T07:50:11.999Z</time></trkpt><trkpt lat="43.3784922443214" lon="12.782354360442614"><ele>641.0</ele><time>2026-04-08T07:50:21Z</time></trkpt><trkpt lat="43.37850021689611" lon="12.782263985318588"><ele>644.0</ele><time>2026-04-08T07:50:36Z</time></trkpt><trkpt lat="43.37850929860272" lon="12.782174483141537"><ele>647.0</ele><time>2026-04-08T07:50:47Z</time></trkpt><trkpt lat="43.37851705663897" lon="12.782085492277538"><ele>650.0</ele><time>2026-04-08T07:50:56Z</time></trkpt><trkpt lat="43.37852959512966" lon="12.781998083978182"><ele>650.0</ele><time>2026-04-08T07:51:04Z</time></trkpt><trkpt lat="43.378571692941335" lon="12.7819288042022"><ele>650.0</ele><time>2026-04-08T07:51:14Z</time></trkpt><trkpt lat="43.378600469459585" lon="12.781839934533519"><ele>650.0</ele><time>2026-04-08T07:51:23Z</time></trkpt><trkpt lat="43.37863442283921" lon="12.781752406514615"><ele>650.0</ele><time>2026-04-08T07:51:33Z</time></trkpt><trkpt lat="43.37867030057217" lon="12.781678265111273"><ele>650.0</ele><time>2026-04-08T07:51:41Z</time></trkpt><trkpt lat="43.37869300608555" lon="12.781585329041482"><ele>650.0</ele><time>2026-04-08T07:51:48Z</time></trkpt><trkpt lat="43.37872206908638" lon="12.78149329172646"><ele>650.0</ele><time>2026-04-08T07:51:57Z</time></trkpt><trkpt lat="43.378751303696546" lon="12.781415906241445"><ele>652.0</ele><time>2026-04-08T07:52:05.999Z</time></trkpt><trkpt lat="43.37874161186922" lon="12.78132520935942"><ele>654.0</ele><time>2026-04-08T07:52:15Z</time></trkpt><trkpt lat="43.37870568505113" lon="12.781244959980494"><ele>656.0</ele><time>2026-04-08T07:52:24Z</time></trkpt><trkpt lat="43.378666872153545" lon="12.781174331781834"><ele>658.0</ele><time>2026-04-08T07:52:36Z</time></trkpt><trkpt lat="43.37868456952675" lon="12.781071693570818"><ele>660.0</ele><time>2026-04-08T07:52:48Z</time></trkpt><trkpt lat="43.378716464555545" lon="12.780993811047818"><ele>662.0</ele><time>2026-04-08T07:52:52Z</time></trkpt><trkpt lat="43.37873485397372" lon="12.78090324161015"><ele>664.0</ele><time>2026-04-08T07:53:03Z</time></trkpt><trkpt lat="43.378757623887815" lon="12.780817013931271"><ele>663.4285714285714</ele><time>2026-04-08T07:53:11Z</time></trkpt><trkpt lat="43.37876139839802" lon="12.780718731903681"><ele>662.8571428571429</ele><time>2026-04-08T07:53:22Z</time></trkpt><trkpt lat="43.378769286987485" lon="12.780628246146465"><ele>662.2857142857143</ele><time>2026-04-08T07:53:31Z</time></trkpt><trkpt lat="43.37880477030157" lon="12.780542648089513"><ele>661.7142857142858</ele><time>2026-04-08T07:53:41Z</time></trkpt><trkpt lat="43.37882325737091" lon="12.780429306479855"><ele>661.1428571428571</ele><time>2026-04-08T07:53:50Z</time></trkpt><trkpt lat="43.37886611307902" lon="12.780350243637258"><ele>660.5714285714287</ele><time>2026-04-08T07:54:01Z</time></trkpt><trkpt lat="43.378922772285044" lon="12.780302454822959"><ele>660.0</ele><time>2026-04-08T07:54:12.001Z</time></trkpt><trkpt lat="43.37896646859637" lon="12.780238556306605"><ele>659.2857142857143</ele><time>2026-04-08T07:54:20.001Z</time></trkpt><trkpt lat="43.3790151974731" lon="12.780170334215095"><ele>658.5714285714286</ele><time>2026-04-08T07:54:29.001Z</time></trkpt><trkpt lat="43.37904791355357" lon="12.780080389774826"><ele>657.8571428571429</ele><time>2026-04-08T07:54:45Z</time></trkpt><trkpt lat="43.37911521749548" lon="12.780040596464687"><ele>657.1428571428571</ele><time>2026-04-08T07:54:55Z</time></trkpt><trkpt lat="43.37916960113701" lon="12.779989589908705"><ele>656.4285714285714</ele><time>2026-04-08T07:55:04Z</time></trkpt><trkpt lat="43.379221798960884" lon="12.779931158049534"><ele>655.7142857142858</ele><time>2026-04-08T07:55:16Z</time></trkpt><trkpt lat="43.379231185142736" lon="12.77984183969312"><ele>655.0</ele><time>2026-04-08T07:55:26Z</time></trkpt><trkpt lat="43.37929060376678" lon="12.779785272618508"><ele>655.0</ele><time>2026-04-08T07:55:34Z</time></trkpt><trkpt lat="43.379336204348625" lon="12.779711879643585"><ele>655.0</ele><time>2026-04-08T07:55:45Z</time></trkpt><trkpt lat="43.37935571553428" lon="12.779625151889393"><ele>655.0</ele><time>2026-04-08T07:55:54Z</time></trkpt><trkpt lat="43.37940008544402" lon="12.779540594331046"><ele>655.0</ele><time>2026-04-08T07:56:06Z</time></trkpt><trkpt lat="43.37943322972514" lon="12.779460611296352"><ele>655.0</ele><time>2026-04-08T07:56:17.001Z</time></trkpt><trkpt lat="43.37946031290383" lon="12.779373612899978"><ele>655.0</ele><time>2026-04-08T07:56:29.001Z</time></trkpt><trkpt lat="43.37945591846471" lon="12.779271935729438"><ele>655.0</ele><time>2026-04-08T07:56:42.001Z</time></trkpt><trkpt lat="43.379507927032954" lon="12.77921618510619"><ele>655.2</ele><time>2026-04-08T07:56:56Z</time></trkpt><trkpt lat="43.37966445164214" lon="12.779107755471951"><ele>655.4</ele><time>2026-04-08T07:57:33Z</time></trkpt><trkpt lat="43.37973107358994" lon="12.779069581174285"><ele>655.5999999999999</ele><time>2026-04-08T07:57:44Z</time></trkpt><trkpt lat="43.37977336578641" lon="12.778998532405804"><ele>655.8</ele><time>2026-04-08T07:57:56Z</time></trkpt><trkpt lat="43.37972743729002" lon="12.77892167096455"><ele>656.0</ele><time>2026-04-08T07:58:03Z</time></trkpt><trkpt lat="43.37974384013691" lon="12.778826455300061"><ele>651.8571428571428</ele><time>2026-04-08T07:59:04Z</time></trkpt><trkpt lat="43.37974916957448" lon="12.778734275166203"><ele>647.7142857142857</ele><time>2026-04-08T07:59:18Z</time></trkpt><trkpt lat="43.37976870192893" lon="12.7786207170479"><ele>643.5714285714286</ele><time>2026-04-08T07:59:38Z</time></trkpt><trkpt lat="43.37982923350356" lon="12.77858282811327"><ele>639.4285714285713</ele><time>2026-04-08T07:59:47Z</time></trkpt><trkpt lat="43.379858191931305" lon="12.778491707643102"><ele>635.2857142857142</ele><time>2026-04-08T08:00:00Z</time></trkpt><trkpt lat="43.379861468549834" lon="12.77840321937221"><ele>631.1428571428571</ele><time>2026-04-08T08:00:06Z</time></trkpt><trkpt lat="43.3798812047389" lon="12.778315925179543"><ele>627.0</ele><time>2026-04-08T08:00:11Z</time></trkpt><trkpt lat="43.37989989560466" lon="12.778232430555336"><ele>627.0</ele><time>2026-04-08T08:00:18Z</time></trkpt><trkpt lat="43.379944781660356" lon="12.778163855387335"><ele>627.0</ele><time>2026-04-08T08:00:24Z</time></trkpt><trkpt lat="43.37996008627751" lon="12.778067123025725"><ele>627.0</ele><time>2026-04-08T08:00:34Z</time></trkpt><trkpt lat="43.37997539736196" lon="12.77798288142836"><ele>627.0</ele><time>2026-04-08T08:00:45Z</time></trkpt><trkpt lat="43.37998487644869" lon="12.777891732577626"><ele>627.0</ele><time>2026-04-08T08:00:53Z</time></trkpt><trkpt lat="43.380043119942464" lon="12.777847216962497"><ele>627.0</ele><time>2026-04-08T08:01:04Z</time></trkpt><trkpt lat="43.380085483646134" lon="12.777783134640625"><ele>627.0</ele><time>2026-04-08T08:01:19Z</time></trkpt><trkpt lat="43.38014492990616" lon="12.777750418941375"><ele>627.0</ele><time>2026-04-08T08:01:26Z</time></trkpt><trkpt lat="43.38020563451176" lon="12.777725442630885"><ele>627.0</ele><time>2026-04-08T08:01:36Z</time></trkpt><trkpt lat="43.38024053820949" lon="12.777652041445156"><ele>627.0</ele><time>2026-04-08T08:01:46.999Z</time></trkpt><trkpt lat="43.3803093185654" lon="12.77760753247962"><ele>627.0</ele><time>2026-04-08T08:01:53.999Z</time></trkpt><trkpt lat="43.38035104259513" lon="12.777537081128987"><ele>627.0</ele><time>2026-04-08T08:01:59.999Z</time></trkpt><trkpt lat="43.38038307159576" lon="12.777456600122528"><ele>627.0</ele><time>2026-04-08T08:02:07.999Z</time></trkpt><trkpt lat="43.38042529301384" lon="12.777389352645757"><ele>627.0</ele><time>2026-04-08T08:02:21.999Z</time></trkpt><trkpt lat="43.380453750080484" lon="12.777289370379393"><ele>630.4285714285714</ele><time>2026-04-08T08:02:44.999Z</time></trkpt><trkpt lat="43.38047776196518" lon="12.777202116238076"><ele>633.8571428571429</ele><time>2026-04-08T08:02:57.999Z</time></trkpt><trkpt lat="43.380453726487026" lon="12.777112774047966"><ele>637.2857142857142</ele><time>2026-04-08T08:03:02.999Z</time></trkpt><trkpt lat="43.380419465583934" lon="12.777019622934516"><ele>640.7142857142858</ele><time>2026-04-08T08:03:10.999Z</time></trkpt><trkpt lat="43.38041500219333" lon="12.776921755715522"><ele>644.1428571428571</ele><time>2026-04-08T08:03:19.999Z</time></trkpt><trkpt lat="43.38047556081943" lon="12.776856532904576"><ele>647.5714285714286</ele><time>2026-04-08T08:04:31.999Z</time></trkpt><trkpt lat="43.38048671414352" lon="12.776768549904245"><ele>651.0</ele><time>2026-04-08T08:04:51.999Z</time></trkpt><trkpt lat="43.38051014350661" lon="12.776681146558483"><ele>647.1428571428571</ele><time>2026-04-08T08:05:00.999Z</time></trkpt><trkpt lat="43.38054927116398" lon="12.77660665576254"><ele>643.2857142857142</ele><time>2026-04-08T08:05:10Z</time></trkpt><trkpt lat="43.38057015862092" lon="12.776511508638816"><ele>639.4285714285714</ele><time>2026-04-08T08:05:18Z</time></trkpt><trkpt lat="43.38058445674912" lon="12.77642659424986"><ele>635.5714285714286</ele><time>2026-04-08T08:05:31Z</time></trkpt><trkpt lat="43.38061038764138" lon="12.776342874913121"><ele>631.7142857142857</ele><time>2026-04-08T08:05:42Z</time></trkpt><trkpt lat="43.380603798217294" lon="12.77625606373923"><ele>627.8571428571429</ele><time>2026-04-08T08:05:54Z</time></trkpt><trkpt lat="43.38064127825738" lon="12.776163407367335"><ele>624.0</ele><time>2026-04-08T08:06:05.999Z</time></trkpt><trkpt lat="43.3806814475295" lon="12.776088059997898"><ele>625.5714285714286</ele><time>2026-04-08T08:06:12.999Z</time></trkpt><trkpt lat="43.38070058689813" lon="12.776005410770573"><ele>627.1428571428571</ele><time>2026-04-08T08:06:21.999Z</time></trkpt><trkpt lat="43.380737007902326" lon="12.775923036537584"><ele>628.7142857142857</ele><time>2026-04-08T08:06:31.999Z</time></trkpt><trkpt lat="43.38078360127581" lon="12.775854047648519"><ele>630.2857142857142</ele><time>2026-04-08T08:06:38.999Z</time></trkpt><trkpt lat="43.38082390260834" lon="12.775784250187156"><ele>631.8571428571429</ele><time>2026-04-08T08:06:48Z</time></trkpt><trkpt lat="43.38087530680174" lon="12.775727601765263"><ele>633.4285714285713</ele><time>2026-04-08T08:06:57Z</time></trkpt><trkpt lat="43.38090654719908" lon="12.775636174683312"><ele>635.0</ele><time>2026-04-08T08:07:11Z</time></trkpt><trkpt lat="43.38095003458384" lon="12.775560289593754"><ele>634.9999999999999</ele><time>2026-04-08T08:07:51Z</time></trkpt><trkpt lat="43.38096872188358" lon="12.77547170817381"><ele>635.0</ele><time>2026-04-08T08:07:59Z</time></trkpt><trkpt lat="43.3809936930271" lon="12.775387807224414"><ele>635.0</ele><time>2026-04-08T08:08:09Z</time></trkpt><trkpt lat="43.381038621944505" lon="12.775320527357525"><ele>635.0</ele><time>2026-04-08T08:08:18Z</time></trkpt><trkpt lat="43.38107103157997" lon="12.775243128581504"><ele>635.0</ele><time>2026-04-08T08:08:27Z</time></trkpt><trkpt lat="43.38112010813956" lon="12.775178855597492"><ele>634.9999999999999</ele><time>2026-04-08T08:08:35Z</time></trkpt><trkpt lat="43.381147264689496" lon="12.77509273186221"><ele>635.0</ele><time>2026-04-08T08:08:45Z</time></trkpt><trkpt lat="43.381159185979435" lon="12.775000880558629"><ele>636.4285714285713</ele><time>2026-04-08T08:08:52.001Z</time></trkpt><trkpt lat="43.3811685167703" lon="12.774904019615311"><ele>637.8571428571429</ele><time>2026-04-08T08:09:00.001Z</time></trkpt><trkpt lat="43.38116565231945" lon="12.774812315456197"><ele>639.2857142857142</ele><time>2026-04-08T08:09:19Z</time></trkpt><trkpt lat="43.38118573256521" lon="12.774712608512454"><ele>640.7142857142857</ele><time>2026-04-08T08:09:57Z</time></trkpt><trkpt lat="43.38121366224472" lon="12.774629246774412"><ele>642.1428571428571</ele><time>2026-04-08T08:10:09Z</time></trkpt><trkpt lat="43.38124784847055" lon="12.774549088086598"><ele>643.5714285714286</ele><time>2026-04-08T08:10:22Z</time></trkpt><trkpt lat="43.38129374406616" lon="12.774443925795104"><ele>645.0</ele><time>2026-04-08T08:10:40Z</time></trkpt><trkpt lat="43.381344724134465" lon="12.774383131403765"><ele>636.5714285714286</ele><time>2026-04-08T08:10:51Z</time></trkpt><trkpt lat="43.38142666200303" lon="12.774286179278914"><ele>628.1428571428571</ele><time>2026-04-08T08:11:13.001Z</time></trkpt><trkpt lat="43.38146181568239" lon="12.774207570649585"><ele>619.7142857142857</ele><time>2026-04-08T08:11:24Z</time></trkpt><trkpt lat="43.38149094152" lon="12.774114419123816"><ele>611.2857142857142</ele><time>2026-04-08T08:11:41Z</time></trkpt><trkpt lat="43.381535342281616" lon="12.77405161882026"><ele>602.8571428571429</ele><time>2026-04-08T08:11:54Z</time></trkpt><trkpt lat="43.381552619026294" lon="12.773963790637794"><ele>594.4285714285713</ele><time>2026-04-08T08:12:06Z</time></trkpt><trkpt lat="43.381585225812856" lon="12.77388947052038"><ele>586.0</ele><time>2026-04-08T08:12:21Z</time></trkpt><trkpt lat="43.38160801307843" lon="12.77380256018779"><ele>585.9999999999999</ele><time>2026-04-08T08:12:32Z</time></trkpt><trkpt lat="43.381641775320745" lon="12.773727355596744"><ele>586.0</ele><time>2026-04-08T08:12:45Z</time></trkpt><trkpt lat="43.38166327026121" lon="12.773641913930456"><ele>586.0</ele><time>2026-04-08T08:12:54Z</time></trkpt><trkpt lat="43.38169424159692" lon="12.77355974517062"><ele>586.0</ele><time>2026-04-08T08:13:05Z</time></trkpt><trkpt lat="43.38172954968621" lon="12.77348469957306"><ele>586.0</ele><time>2026-04-08T08:13:19Z</time></trkpt><trkpt lat="43.38175831099477" lon="12.77339690724191"><ele>585.9999999999999</ele><time>2026-04-08T08:13:30Z</time></trkpt><trkpt lat="43.381797127254394" lon="12.773316184653323"><ele>586.0</ele><time>2026-04-08T08:13:38Z</time></trkpt><trkpt lat="43.38182111439143" lon="12.773229700327292"><ele>585.9999999999999</ele><time>2026-04-08T08:13:46Z</time></trkpt><trkpt lat="43.381828505292724" lon="12.77314054375957"><ele>586.0</ele><time>2026-04-08T08:13:55Z</time></trkpt><trkpt lat="43.38182702663776" lon="12.773040945669319"><ele>586.0</ele><time>2026-04-08T08:14:03Z</time></trkpt><trkpt lat="43.38181038701948" lon="12.772950799498453"><ele>586.0</ele><time>2026-04-08T08:14:09Z</time></trkpt><trkpt lat="43.38180184529143" lon="12.772849610546775"><ele>586.0</ele><time>2026-04-08T08:14:18Z</time></trkpt><trkpt lat="43.38175556096577" lon="12.772780137864611"><ele>585.9999999999999</ele><time>2026-04-08T08:14:26Z</time></trkpt><trkpt lat="43.38174542695031" lon="12.772693310129567"><ele>586.0</ele><time>2026-04-08T08:14:33.999Z</time></trkpt><trkpt lat="43.38171897407089" lon="12.772612426609026"><ele>585.9999999999999</ele><time>2026-04-08T08:14:41.999Z</time></trkpt><trkpt lat="43.381715106182064" lon="12.77252530811142"><ele>586.0</ele><time>2026-04-08T08:14:48.999Z</time></trkpt><trkpt lat="43.38169350448241" lon="12.77244050856165"><ele>586.0</ele><time>2026-04-08T08:14:57.999Z</time></trkpt><trkpt lat="43.381714675523874" lon="12.772298503663702"><ele>586.0</ele><time>2026-04-08T08:15:14Z</time></trkpt><trkpt lat="43.381695668539585" lon="12.772212196843277"><ele>586.0</ele><time>2026-04-08T08:15:26Z</time></trkpt><trkpt lat="43.38168828365874" lon="12.772122125801364"><ele>585.9999999999999</ele><time>2026-04-08T08:15:35Z</time></trkpt><trkpt lat="43.381659266655085" lon="12.772030168141251"><ele>586.0</ele><time>2026-04-08T08:15:42Z</time></trkpt><trkpt lat="43.38163502276107" lon="12.771944365249663"><ele>586.0</ele><time>2026-04-08T08:15:49Z</time></trkpt><trkpt lat="43.381616277045985" lon="12.771857529046988"><ele>586.0</ele><time>2026-04-08T08:15:57Z</time></trkpt><trkpt lat="43.38159344386178" lon="12.771763434435066"><ele>586.0</ele><time>2026-04-08T08:16:04Z</time></trkpt><trkpt lat="43.3815690135302" lon="12.771677175913196"><ele>586.0</ele><time>2026-04-08T08:16:15Z</time></trkpt><trkpt lat="43.381539655455484" lon="12.771530080506373"><ele>586.0</ele><time>2026-04-08T08:16:39Z</time></trkpt><trkpt lat="43.38153685605943" lon="12.771433520151904"><ele>586.0</ele><time>2026-04-08T08:16:59.999Z</time></trkpt><trkpt lat="43.38153212107599" lon="12.771343980454978"><ele>586.8571428571428</ele><time>2026-04-08T08:17:11.999Z</time></trkpt><trkpt lat="43.381490975673714" lon="12.77127394377875"><ele>587.7142857142857</ele><time>2026-04-08T08:17:20Z</time></trkpt><trkpt lat="43.38147955354695" lon="12.77118872791242"><ele>588.5714285714286</ele><time>2026-04-08T08:17:39Z</time></trkpt><trkpt lat="43.38145688914592" lon="12.771073011439286"><ele>589.4285714285713</ele><time>2026-04-08T08:18:01Z</time></trkpt><trkpt lat="43.38138413474239" lon="12.771052691382193"><ele>590.2857142857142</ele><time>2026-04-08T08:18:15Z</time></trkpt><trkpt lat="43.381328659907226" lon="12.770988105548287"><ele>591.1428571428571</ele><time>2026-04-08T08:18:26.999Z</time></trkpt><trkpt lat="43.38127867946425" lon="12.770934854746185"><ele>592.0</ele><time>2026-04-08T08:18:33.999Z</time></trkpt><trkpt lat="43.38122265100012" lon="12.770888428915883"><ele>592.0</ele><time>2026-04-08T08:18:42.999Z</time></trkpt><trkpt lat="43.381156273325175" lon="12.770832303144378"><ele>592.0</ele><time>2026-04-08T08:18:51.999Z</time></trkpt><trkpt lat="43.381095720188384" lon="12.77080675606912"><ele>592.0</ele><time>2026-04-08T08:18:58.999Z</time></trkpt><trkpt lat="43.38107149143181" lon="12.77072526134001"><ele>592.0</ele><time>2026-04-08T08:19:28Z</time></trkpt><trkpt lat="43.38100942222267" lon="12.770690219301953"><ele>592.0</ele><time>2026-04-08T08:19:47Z</time></trkpt><trkpt lat="43.38095114222481" lon="12.770614098124252"><ele>592.0</ele><time>2026-04-08T08:19:54Z</time></trkpt><trkpt lat="43.381013021953464" lon="12.770588569746252"><ele>592.0</ele><time>2026-04-08T08:20:16Z</time></trkpt><trkpt lat="43.38102406241621" lon="12.770495760018825"><ele>592.0</ele><time>2026-04-08T08:20:23Z</time></trkpt><trkpt lat="43.38103577217274" lon="12.770402924554883"><ele>592.0</ele><time>2026-04-08T08:20:34.999Z</time></trkpt><trkpt lat="43.38103981837356" lon="12.770310716623895"><ele>592.0</ele><time>2026-04-08T08:20:43.999Z</time></trkpt><trkpt lat="43.38099506323254" lon="12.770245394703474"><ele>592.0</ele><time>2026-04-08T08:20:48.999Z</time></trkpt><trkpt lat="43.380966134717525" lon="12.770163331467703"><ele>592.0</ele><time>2026-04-08T08:20:56.999Z</time></trkpt><trkpt lat="43.38096563679258" lon="12.770070271572997"><ele>592.0</ele><time>2026-04-08T08:21:04.999Z</time></trkpt><trkpt lat="43.380987006689736" lon="12.769984969586083"><ele>592.0</ele><time>2026-04-08T08:21:13.999Z</time></trkpt><trkpt lat="43.38098547001887" lon="12.769890565572714"><ele>589.7142857142858</ele><time>2026-04-08T08:21:23.999Z</time></trkpt><trkpt lat="43.381009663137085" lon="12.769807203434796"><ele>587.4285714285714</ele><time>2026-04-08T08:21:33Z</time></trkpt><trkpt lat="43.381044952790596" lon="12.769726364802269"><ele>585.1428571428571</ele><time>2026-04-08T08:21:42Z</time></trkpt><trkpt lat="43.38098775965762" lon="12.769679627491907"><ele>582.8571428571429</ele><time>2026-04-08T08:21:44Z</time></trkpt><trkpt lat="43.38103272778047" lon="12.769613771587524"><ele>580.5714285714286</ele><time>2026-04-08T08:21:53Z</time></trkpt><trkpt lat="43.38105641514662" lon="12.769527763218706"><ele>578.2857142857143</ele><time>2026-04-08T08:22:01Z</time></trkpt><trkpt lat="43.380969855162334" lon="12.769450953392997"><ele>576.0</ele><time>2026-04-08T08:22:28Z</time></trkpt><trkpt lat="43.38091770237814" lon="12.769383781464931"><ele>576.0</ele><time>2026-04-08T08:23:34Z</time></trkpt><trkpt lat="43.38085662606854" lon="12.769359201191879"><ele>576.0</ele><time>2026-04-08T08:23:46Z</time></trkpt><trkpt lat="43.380806115557775" lon="12.769298740831427"><ele>576.0</ele><time>2026-04-08T08:24:02Z</time></trkpt><trkpt lat="43.380712052641" lon="12.769298146915624"><ele>576.0</ele><time>2026-04-08T08:24:22Z</time></trkpt><trkpt lat="43.38065698038527" lon="12.769198659280422"><ele>576.0</ele><time>2026-04-08T08:24:30.999Z</time></trkpt><trkpt lat="43.380610926078305" lon="12.76910507480498"><ele>576.0</ele><time>2026-04-08T08:24:38.999Z</time></trkpt><trkpt lat="43.38057190546553" lon="12.769032364122795"><ele>579.0000000000001</ele><time>2026-04-08T08:24:47.999Z</time></trkpt><trkpt lat="43.3805134462418" lon="12.768988031656033"><ele>582.0</ele><time>2026-04-08T08:24:53.999Z</time></trkpt><trkpt lat="43.38047765798534" lon="12.768898133169968"><ele>585.0</ele><time>2026-04-08T08:24:58.999Z</time></trkpt><trkpt lat="43.380437335747594" lon="12.768814009261165"><ele>588.0</ele><time>2026-04-08T08:25:05.999Z</time></trkpt><trkpt lat="43.38036500157592" lon="12.768797661360693"><ele>591.0</ele><time>2026-04-08T08:25:12.999Z</time></trkpt><trkpt lat="43.38028680569547" lon="12.768773726435125"><ele>594.0000000000001</ele><time>2026-04-08T08:25:20.999Z</time></trkpt><trkpt lat="43.38021596545278" lon="12.768763077831041"><ele>597.0</ele><time>2026-04-08T08:25:26.999Z</time></trkpt><trkpt lat="43.38015591172517" lon="12.768698721045316"><ele>597.0000000000001</ele><time>2026-04-08T08:25:34.999Z</time></trkpt><trkpt lat="43.38015636407771" lon="12.768609773262337"><ele>597.0</ele><time>2026-04-08T08:25:45Z</time></trkpt><trkpt lat="43.380142955056556" lon="12.76852160748344"><ele>597.0</ele><time>2026-04-08T08:25:54Z</time></trkpt><trkpt lat="43.380083420711195" lon="12.768463975421001"><ele>597.0</ele><time>2026-04-08T08:26:02Z</time></trkpt><trkpt lat="43.38006190238693" lon="12.768364467955656"><ele>597.0</ele><time>2026-04-08T08:26:18Z</time></trkpt><trkpt lat="43.380022942210076" lon="12.768282861633454"><ele>597.0000000000001</ele><time>2026-04-08T08:26:33Z</time></trkpt><trkpt lat="43.37999723991709" lon="12.768165543643502"><ele>597.0</ele><time>2026-04-08T08:26:40Z</time></trkpt><trkpt lat="43.38004597570133" lon="12.76808729533399"><ele>592.8333333333334</ele><time>2026-04-08T08:26:52.999Z</time></trkpt><trkpt lat="43.38000659911997" lon="12.767959437692799"><ele>588.6666666666666</ele><time>2026-04-08T08:27:10.999Z</time></trkpt><trkpt lat="43.379958464024355" lon="12.767873342988668"><ele>584.5</ele><time>2026-04-08T08:27:20.999Z</time></trkpt><trkpt lat="43.37989630773578" lon="12.767801316888184"><ele>580.3333333333333</ele><time>2026-04-08T08:27:37.999Z</time></trkpt><trkpt lat="43.379961605513145" lon="12.76773966842122"><ele>576.1666666666666</ele><time>2026-04-08T08:28:18Z</time></trkpt><trkpt lat="43.37994702986496" lon="12.767646653266972"><ele>572.0</ele><time>2026-04-08T08:28:29Z</time></trkpt><trkpt lat="43.379885535451066" lon="12.767618565751214"><ele>571.5714285714286</ele><time>2026-04-08T08:28:47.999Z</time></trkpt><trkpt lat="43.37982292494943" lon="12.76757493669596"><ele>571.1428571428571</ele><time>2026-04-08T08:29:21.999Z</time></trkpt><trkpt lat="43.37977713707208" lon="12.767491474801904"><ele>570.7142857142858</ele><time>2026-04-08T08:29:48.999Z</time></trkpt><trkpt lat="43.37984945776349" lon="12.767479136863487"><ele>570.2857142857142</ele><time>2026-04-08T08:30:04Z</time></trkpt><trkpt lat="43.3798636509561" lon="12.767392686161703"><ele>569.8571428571429</ele><time>2026-04-08T08:30:17Z</time></trkpt><trkpt lat="43.3798100103357" lon="12.767448582890271"><ele>569.4285714285714</ele><time>2026-04-08T08:30:35.999Z</time></trkpt><trkpt lat="43.37987439520735" lon="12.767448104300826"><ele>569.0</ele><time>2026-04-08T08:30:37.999Z</time></trkpt><trkpt lat="43.379800956841045" lon="12.767437830444658"><ele>569.0</ele><time>2026-04-08T08:30:40.999Z</time></trkpt><trkpt lat="43.379717424578" lon="12.767401798764139"><ele>569.0</ele><time>2026-04-08T08:31:37.999Z</time></trkpt><trkpt lat="43.379752880617865" lon="12.76748259374384"><ele>569.0</ele><time>2026-04-08T08:32:04Z</time></trkpt><trkpt lat="43.37980164711442" lon="12.767384908400503"><ele>569.0</ele><time>2026-04-08T08:33:34.999Z</time></trkpt><trkpt lat="43.37981065382453" lon="12.767478468892163"><ele>569.0</ele><time>2026-04-08T08:34:28.999Z</time></trkpt><trkpt lat="43.379831274883394" lon="12.767485981828148"><ele>569.0</ele><time>2026-04-08T08:42:05.023Z</time></trkpt><trkpt lat="43.37995002664519" lon="12.767498667134426"><ele>569.0</ele><time>2026-04-08T08:42:16.002Z</time></trkpt><trkpt lat="43.38001376622282" lon="12.767478841864756"><ele>569.0</ele><time>2026-04-08T08:42:34.001Z</time></trkpt><trkpt lat="43.38008233527466" lon="12.767508030285812"><ele>569.0</ele><time>2026-04-08T08:42:37.001Z</time></trkpt><trkpt lat="43.38001568490811" lon="12.767539988522989"><ele>569.0</ele><time>2026-04-08T08:42:39.001Z</time></trkpt><trkpt lat="43.38009701919288" lon="12.7675356724353"><ele>569.0</ele><time>2026-04-08T08:42:44Z</time></trkpt><trkpt lat="43.38019130180247" lon="12.767530444844406"><ele>569.0</ele><time>2026-04-08T08:43:26Z</time></trkpt><trkpt lat="43.38012055633741" lon="12.767469627789902"><ele>569.0000000000001</ele><time>2026-04-08T08:43:53.999Z</time></trkpt><trkpt lat="43.380225107990505" lon="12.76747026527621"><ele>569.0</ele><time>2026-04-08T08:44:17.001Z</time></trkpt><trkpt lat="43.38022541911029" lon="12.767382698745484"><ele>569.0</ele><time>2026-04-08T08:45:07Z</time></trkpt><trkpt lat="43.38029546362593" lon="12.76739884938263"><ele>569.0</ele><time>2026-04-08T08:45:16Z</time></trkpt><trkpt lat="43.38033443685395" lon="12.767470166840974"><ele>569.0</ele><time>2026-04-08T08:45:21Z</time></trkpt><trkpt lat="43.38035610906981" lon="12.767553549113885"><ele>569.0000000000001</ele><time>2026-04-08T08:45:27Z</time></trkpt><trkpt lat="43.380374395222475" lon="12.767660283692237"><ele>569.0</ele><time>2026-04-08T08:45:38Z</time></trkpt><trkpt lat="43.380394515789206" lon="12.767745702981415"><ele>569.5</ele><time>2026-04-08T08:45:48Z</time></trkpt><trkpt lat="43.380427902820564" lon="12.767827343371348"><ele>570.0</ele><time>2026-04-08T08:45:56.999Z</time></trkpt><trkpt lat="43.38051166020527" lon="12.767850148356871"><ele>570.5</ele><time>2026-04-08T08:46:05.999Z</time></trkpt><trkpt lat="43.38058715052346" lon="12.767760567770738"><ele>571.0</ele><time>2026-04-08T08:46:17.999Z</time></trkpt><trkpt lat="43.38065352372214" lon="12.76784610250599"><ele>571.5</ele><time>2026-04-08T08:46:30.001Z</time></trkpt><trkpt lat="43.38069951900617" lon="12.76795836081113"><ele>572.0</ele><time>2026-04-08T08:46:47Z</time></trkpt><trkpt lat="43.38074677148315" lon="12.768035190474023"><ele>566.7142857142857</ele><time>2026-04-08T08:46:54Z</time></trkpt><trkpt lat="43.38081082488506" lon="12.768054512351302"><ele>561.4285714285714</ele><time>2026-04-08T08:47:05Z</time></trkpt><trkpt lat="43.3808884157473" lon="12.768058248300507"><ele>556.1428571428571</ele><time>2026-04-08T08:47:14Z</time></trkpt><trkpt lat="43.380944404666295" lon="12.768108997593325"><ele>550.8571428571429</ele><time>2026-04-08T08:47:22Z</time></trkpt><trkpt lat="43.38100450223201" lon="12.768146255913782"><ele>545.5714285714286</ele><time>2026-04-08T08:47:29Z</time></trkpt><trkpt lat="43.38103415649187" lon="12.768238316185162"><ele>540.2857142857142</ele><time>2026-04-08T08:47:37Z</time></trkpt><trkpt lat="43.38109431404676" lon="12.76828531391576"><ele>535.0</ele><time>2026-04-08T08:47:43.999Z</time></trkpt><trkpt lat="43.38116791598681" lon="12.768300315967538"><ele>535.0</ele><time>2026-04-08T08:47:56.999Z</time></trkpt><trkpt lat="43.38123082799174" lon="12.768290194200613"><ele>535.0</ele><time>2026-04-08T08:48:01.999Z</time></trkpt><trkpt lat="43.3812928891205" lon="12.768325260431252"><ele>535.0</ele><time>2026-04-08T08:48:09.999Z</time></trkpt><trkpt lat="43.38135482169975" lon="12.768386508314961"><ele>535.0</ele><time>2026-04-08T08:48:36.001Z</time></trkpt><trkpt lat="43.38143802962934" lon="12.768447935053738"><ele>535.0</ele><time>2026-04-08T08:48:50Z</time></trkpt><trkpt lat="43.38149500071852" lon="12.768493899139461"><ele>535.0</ele><time>2026-04-08T08:49:01Z</time></trkpt><trkpt lat="43.38158209635372" lon="12.76853486537349"><ele>532.1428571428571</ele><time>2026-04-08T08:52:27.998Z</time></trkpt><trkpt lat="43.38165834156103" lon="12.768548186291893"><ele>529.2857142857143</ele><time>2026-04-08T08:52:45Z</time></trkpt><trkpt lat="43.38172231691485" lon="12.768580048016288"><ele>526.4285714285714</ele><time>2026-04-08T08:52:57Z</time></trkpt><trkpt lat="43.38178261449807" lon="12.768617879592028"><ele>523.5714285714286</ele><time>2026-04-08T08:53:06Z</time></trkpt><trkpt lat="43.38184544972198" lon="12.768676792327273"><ele>520.7142857142857</ele><time>2026-04-08T08:53:15.999Z</time></trkpt><trkpt lat="43.38187724402879" lon="12.76875608176898"><ele>517.8571428571429</ele><time>2026-04-08T08:53:25.999Z</time></trkpt><trkpt lat="43.381912203576604" lon="12.768836257691042"><ele>515.0</ele><time>2026-04-08T08:53:35.999Z</time></trkpt><trkpt lat="43.38194422285439" lon="12.768911325329489"><ele>515.0</ele><time>2026-04-08T08:53:46.999Z</time></trkpt><trkpt lat="43.38197598120523" lon="12.768995472979903"><ele>515.0</ele><time>2026-04-08T08:53:55.999Z</time></trkpt><trkpt lat="43.38196922463987" lon="12.769092882903093"><ele>515.0</ele><time>2026-04-08T08:54:10.998Z</time></trkpt><trkpt lat="43.38201989827332" lon="12.769170706023603"><ele>515.0</ele><time>2026-04-08T08:54:26.998Z</time></trkpt><trkpt lat="43.382028609270186" lon="12.769257471964004"><ele>515.0</ele><time>2026-04-08T08:54:37.998Z</time></trkpt><trkpt lat="43.38204696183999" lon="12.76936846163621"><ele>515.0</ele><time>2026-04-08T08:54:51Z</time></trkpt><trkpt lat="43.382070366092435" lon="12.769463966403006"><ele>515.0</ele><time>2026-04-08T08:55:03Z</time></trkpt><trkpt lat="43.38211865876723" lon="12.769522516594554"><ele>515.8571428571429</ele><time>2026-04-08T08:55:14Z</time></trkpt><trkpt lat="43.382176590237975" lon="12.76956204456242"><ele>516.7142857142857</ele><time>2026-04-08T08:55:23Z</time></trkpt><trkpt lat="43.38223872921397" lon="12.769598701788508"><ele>517.5714285714286</ele><time>2026-04-08T08:55:35.999Z</time></trkpt><trkpt lat="43.38228852920137" lon="12.76965914673763"><ele>518.4285714285714</ele><time>2026-04-08T08:55:43.999Z</time></trkpt><trkpt lat="43.38234190990008" lon="12.769725416701727"><ele>519.2857142857143</ele><time>2026-04-08T08:55:50.999Z</time></trkpt><trkpt lat="43.382384883907754" lon="12.769792428578322"><ele>520.1428571428571</ele><time>2026-04-08T08:55:56.999Z</time></trkpt><trkpt lat="43.38242626133893" lon="12.769858453364613"><ele>521.0</ele><time>2026-04-08T08:56:01.999Z</time></trkpt><trkpt lat="43.38245942535958" lon="12.769935782917411"><ele>519.1428571428571</ele><time>2026-04-08T08:56:07.999Z</time></trkpt><trkpt lat="43.382517463253386" lon="12.76999399196529"><ele>517.2857142857143</ele><time>2026-04-08T08:56:15.999Z</time></trkpt><trkpt lat="43.382574194919776" lon="12.770050370361261"><ele>515.4285714285714</ele><time>2026-04-08T08:56:22.999Z</time></trkpt><trkpt lat="43.38262907992391" lon="12.770107020970164"><ele>513.5714285714286</ele><time>2026-04-08T08:56:28.998Z</time></trkpt><trkpt lat="43.382694007512285" lon="12.770162790211705"><ele>511.71428571428567</ele><time>2026-04-08T08:56:36.998Z</time></trkpt><trkpt lat="43.38275402695648" lon="12.770217091936068"><ele>509.8571428571429</ele><time>2026-04-08T08:56:44.998Z</time></trkpt><trkpt lat="43.38280159429718" lon="12.770279082608079"><ele>508.0</ele><time>2026-04-08T08:56:52Z</time></trkpt><trkpt lat="43.38285050195022" lon="12.7703424158126"><ele>507.0</ele><time>2026-04-08T08:56:59Z</time></trkpt><trkpt lat="43.382896881938784" lon="12.770403747067215"><ele>506.0</ele><time>2026-04-08T08:57:05Z</time></trkpt><trkpt lat="43.38294910897983" lon="12.770466658804652"><ele>505.0</ele><time>2026-04-08T08:57:11Z</time></trkpt><trkpt lat="43.383008621979066" lon="12.770509238932034"><ele>504.0</ele><time>2026-04-08T08:57:20Z</time></trkpt><trkpt lat="43.3830727547229" lon="12.770544553880205"><ele>503.0</ele><time>2026-04-08T08:57:27Z</time></trkpt><trkpt lat="43.38313219779511" lon="12.770573607534544"><ele>502.0</ele><time>2026-04-08T08:57:33.999Z</time></trkpt><trkpt lat="43.38320051844314" lon="12.770587327043298"><ele>501.0</ele><time>2026-04-08T08:57:42.999Z</time></trkpt><trkpt lat="43.383266837175704" lon="12.770608096281064"><ele>499.8571428571429</ele><time>2026-04-08T08:57:50.999Z</time></trkpt><trkpt lat="43.383338072488755" lon="12.770624494436673"><ele>498.71428571428567</ele><time>2026-04-08T08:57:58.999Z</time></trkpt><trkpt lat="43.38339847096487" lon="12.770649359726427"><ele>497.57142857142856</ele><time>2026-04-08T08:58:06.999Z</time></trkpt><trkpt lat="43.383461467896744" lon="12.770668161364053"><ele>496.42857142857144</ele><time>2026-04-08T08:58:15.999Z</time></trkpt><trkpt lat="43.3835258745701" lon="12.770650031604433"><ele>495.28571428571433</ele><time>2026-04-08T08:58:23.999Z</time></trkpt><trkpt lat="43.38359395806269" lon="12.770620518048434"><ele>494.1428571428571</ele><time>2026-04-08T08:58:30.998Z</time></trkpt><trkpt lat="43.38365580836248" lon="12.770578055821137"><ele>493.0</ele><time>2026-04-08T08:58:38.998Z</time></trkpt><trkpt lat="43.38371244815771" lon="12.77052128006484"><ele>493.0</ele><time>2026-04-08T08:58:45.998Z</time></trkpt><trkpt lat="43.38376404757653" lon="12.770461570640153"><ele>493.0</ele><time>2026-04-08T08:58:53.998Z</time></trkpt><trkpt lat="43.383806500802805" lon="12.770385950745753"><ele>493.0</ele><time>2026-04-08T08:59:01Z</time></trkpt><trkpt lat="43.38384738081796" lon="12.770309032468584"><ele>493.0</ele><time>2026-04-08T08:59:09Z</time></trkpt><trkpt lat="43.38390786717218" lon="12.770258309480283"><ele>493.0</ele><time>2026-04-08T08:59:17Z</time></trkpt><trkpt lat="43.383963206369835" lon="12.770206833379506"><ele>493.0</ele><time>2026-04-08T08:59:24Z</time></trkpt><trkpt lat="43.383999467781365" lon="12.77012615976818"><ele>493.0</ele><time>2026-04-08T08:59:35Z</time></trkpt><trkpt lat="43.38404570578298" lon="12.77006138503641"><ele>495.71428571428567</ele><time>2026-04-08T08:59:45.999Z</time></trkpt><trkpt lat="43.38410076255463" lon="12.770019328303729"><ele>498.42857142857144</ele><time>2026-04-08T08:59:53.999Z</time></trkpt><trkpt lat="43.38414212899892" lon="12.76994235375276"><ele>501.1428571428571</ele><time>2026-04-08T09:00:01.999Z</time></trkpt><trkpt lat="43.38419828027404" lon="12.769883776522382"><ele>503.85714285714283</ele><time>2026-04-08T09:00:11.999Z</time></trkpt><trkpt lat="43.38424173933782" lon="12.769812487493553"><ele>506.57142857142856</ele><time>2026-04-08T09:00:21.999Z</time></trkpt><trkpt lat="43.38430614793762" lon="12.76978052137727"><ele>509.2857142857143</ele><time>2026-04-08T09:00:29.999Z</time></trkpt><trkpt lat="43.38437501834459" lon="12.76982335354133"><ele>512.0</ele><time>2026-04-08T09:00:37.998Z</time></trkpt><trkpt lat="43.38443690845366" lon="12.769856660007465"><ele>512.0</ele><time>2026-04-08T09:00:46.998Z</time></trkpt><trkpt lat="43.384494220800676" lon="12.769898809810872"><ele>511.99999999999994</ele><time>2026-04-08T09:00:56.998Z</time></trkpt><trkpt lat="43.384547406227995" lon="12.76995190407279"><ele>512.0</ele><time>2026-04-08T09:01:06Z</time></trkpt><trkpt lat="43.38460986679312" lon="12.769975278517256"><ele>512.0</ele><time>2026-04-08T09:01:16Z</time></trkpt><trkpt lat="43.38467336397988" lon="12.770032984620169"><ele>511.99999999999994</ele><time>2026-04-08T09:01:24Z</time></trkpt><trkpt lat="43.384724150379334" lon="12.770084906668322"><ele>512.0</ele><time>2026-04-08T09:01:31Z</time></trkpt><trkpt lat="43.38477483866925" lon="12.770137182471402"><ele>512.0</ele><time>2026-04-08T09:01:38Z</time></trkpt><trkpt lat="43.38482858016254" lon="12.77018537281441"><ele>511.0</ele><time>2026-04-08T09:01:44.999Z</time></trkpt><trkpt lat="43.38488538364282" lon="12.770236941675218"><ele>509.99999999999994</ele><time>2026-04-08T09:01:52.999Z</time></trkpt><trkpt lat="43.384960988271835" lon="12.77029382601785"><ele>509.0</ele><time>2026-04-08T09:02:09.999Z</time></trkpt><trkpt lat="43.38502163395571" lon="12.770350832174023"><ele>508.0</ele><time>2026-04-08T09:02:19.999Z</time></trkpt><trkpt lat="43.38507437405341" lon="12.770418131813843"><ele>506.99999999999994</ele><time>2026-04-08T09:02:27.999Z</time></trkpt><trkpt lat="43.38511970348917" lon="12.770495272431015"><ele>506.0</ele><time>2026-04-08T09:02:36.999Z</time></trkpt><trkpt lat="43.385171876052304" lon="12.77055717049266"><ele>505.0</ele><time>2026-04-08T09:02:46.998Z</time></trkpt><trkpt lat="43.38522471059201" lon="12.770622162435235"><ele>505.0</ele><time>2026-04-08T09:02:58.998Z</time></trkpt><trkpt lat="43.38522698633348" lon="12.770718577634957"><ele>504.99999999999994</ele><time>2026-04-08T09:03:06.998Z</time></trkpt><trkpt lat="43.38523882973434" lon="12.770805688991214"><ele>505.0</ele><time>2026-04-08T09:03:15Z</time></trkpt><trkpt lat="43.38527243674586" lon="12.770886514552615"><ele>505.0</ele><time>2026-04-08T09:03:25Z</time></trkpt><trkpt lat="43.385319746050456" lon="12.770950353561231"><ele>504.99999999999994</ele><time>2026-04-08T09:03:33Z</time></trkpt><trkpt lat="43.38538628944151" lon="12.770993518290313"><ele>505.0</ele><time>2026-04-08T09:03:43Z</time></trkpt><trkpt lat="43.385482551516205" lon="12.771007163749523"><ele>505.0</ele><time>2026-04-08T09:03:54.999Z</time></trkpt><trkpt lat="43.38542266701965" lon="12.771051569927605"><ele>507.1428571428571</ele><time>2026-04-08T09:04:14.999Z</time></trkpt><trkpt lat="43.38548889229361" lon="12.771038518231176"><ele>509.2857142857142</ele><time>2026-04-08T09:05:27Z</time></trkpt><trkpt lat="43.38554695936382" lon="12.770996913717056"><ele>511.42857142857144</ele><time>2026-04-08T09:05:35Z</time></trkpt><trkpt lat="43.38562135691875" lon="12.770990403987419"><ele>513.5714285714286</ele><time>2026-04-08T09:05:40Z</time></trkpt><trkpt lat="43.38568879662245" lon="12.770977418789306"><ele>515.7142857142858</ele><time>2026-04-08T09:05:45Z</time></trkpt><trkpt lat="43.3857669829037" lon="12.770985186803875"><ele>517.8571428571429</ele><time>2026-04-08T09:05:53Z</time></trkpt><trkpt lat="43.385836024066634" lon="12.770970174688074"><ele>520.0</ele><time>2026-04-08T09:05:58.999Z</time></trkpt><trkpt lat="43.385899801751144" lon="12.770961217763652"><ele>520.0000000000001</ele><time>2026-04-08T09:06:04.999Z</time></trkpt><trkpt lat="43.38596916360177" lon="12.770949581905661"><ele>520.0</ele><time>2026-04-08T09:06:11.999Z</time></trkpt><trkpt lat="43.38605870110692" lon="12.770947309917782"><ele>520.0</ele><time>2026-04-08T09:06:18.999Z</time></trkpt><trkpt lat="43.386119842365524" lon="12.770917647237313"><ele>520.0</ele><time>2026-04-08T09:06:28.999Z</time></trkpt><trkpt lat="43.38618321253001" lon="12.770895682119097"><ele>520.0</ele><time>2026-04-08T09:06:33.999Z</time></trkpt><trkpt lat="43.38623540704506" lon="12.770827408991572"><ele>520.0000000000001</ele><time>2026-04-08T09:06:40.999Z</time></trkpt><trkpt lat="43.38631114384895" lon="12.770815081106988"><ele>520.0</ele><time>2026-04-08T09:06:47.999Z</time></trkpt><trkpt lat="43.38638339220481" lon="12.770822362392993"><ele>519.4285714285714</ele><time>2026-04-08T09:06:55.998Z</time></trkpt><trkpt lat="43.386441308251584" lon="12.770774271931266"><ele>518.8571428571429</ele><time>2026-04-08T09:07:05.998Z</time></trkpt><trkpt lat="43.38650746729452" lon="12.770751583655798"><ele>518.2857142857142</ele><time>2026-04-08T09:07:12.998Z</time></trkpt><trkpt lat="43.38656797531776" lon="12.770702254574193"><ele>517.7142857142858</ele><time>2026-04-08T09:11:13.998Z</time></trkpt><trkpt lat="43.38661254218635" lon="12.770624226878473"><ele>517.1428571428571</ele><time>2026-04-08T09:11:22.998Z</time></trkpt><trkpt lat="43.38662303752478" lon="12.77053213214356"><ele>516.5714285714286</ele><time>2026-04-08T09:11:30.998Z</time></trkpt><trkpt lat="43.38664212711085" lon="12.770441740537873"><ele>516.0</ele><time>2026-04-08T09:11:38Z</time></trkpt><trkpt lat="43.38664559283775" lon="12.770340689401644"><ele>515.9999999999999</ele><time>2026-04-08T09:11:47Z</time></trkpt><trkpt lat="43.38665421124655" lon="12.77023145387687"><ele>516.0</ele><time>2026-04-08T09:12:00Z</time></trkpt><trkpt lat="43.386674077552094" lon="12.770148321179864"><ele>516.0</ele><time>2026-04-08T09:12:08Z</time></trkpt><trkpt lat="43.38674148921257" lon="12.770099073692046"><ele>516.0</ele><time>2026-04-08T09:12:24.999Z</time></trkpt><trkpt lat="43.38679042994906" lon="12.770015990274379"><ele>516.0</ele><time>2026-04-08T09:12:48.999Z</time></trkpt><trkpt lat="43.38686081662357" lon="12.76999801678837"><ele>515.9999999999999</ele><time>2026-04-08T09:13:31.998Z</time></trkpt><trkpt lat="43.38692557719689" lon="12.770037450945388"><ele>516.0</ele><time>2026-04-08T09:13:44Z</time></trkpt><trkpt lat="43.386989257496865" lon="12.770019168497395"><ele>516.7142857142857</ele><time>2026-04-08T09:13:54Z</time></trkpt><trkpt lat="43.387055486878516" lon="12.77001736040335"><ele>517.4285714285714</ele><time>2026-04-08T09:13:59Z</time></trkpt><trkpt lat="43.38712459123886" lon="12.770008446948085"><ele>518.1428571428571</ele><time>2026-04-08T09:14:05Z</time></trkpt><trkpt lat="43.387187524727736" lon="12.769993425424753"><ele>518.8571428571429</ele><time>2026-04-08T09:14:11Z</time></trkpt><trkpt lat="43.38725091848657" lon="12.769995329229577"><ele>519.5714285714286</ele><time>2026-04-08T09:14:18Z</time></trkpt><trkpt lat="43.38732466661402" lon="12.76998225330872"><ele>520.2857142857142</ele><time>2026-04-08T09:14:25.999Z</time></trkpt><trkpt lat="43.38739111013572" lon="12.769972675300542"><ele>521.0</ele><time>2026-04-08T09:14:32.999Z</time></trkpt><trkpt lat="43.38747177524521" lon="12.76996147152217"><ele>521.0</ele><time>2026-04-08T09:14:43.999Z</time></trkpt><trkpt lat="43.38754469230803" lon="12.769952583648443"><ele>521.0</ele><time>2026-04-08T09:14:51.999Z</time></trkpt><trkpt lat="43.38761019653881" lon="12.769950940787009"><ele>521.0</ele><time>2026-04-08T09:15:01.999Z</time></trkpt><trkpt lat="43.38768517490533" lon="12.769959672444745"><ele>521.0</ele><time>2026-04-08T09:15:08.999Z</time></trkpt><trkpt lat="43.387752132065145" lon="12.769929103170337"><ele>521.0</ele><time>2026-04-08T09:15:20.999Z</time></trkpt><trkpt lat="43.38782522116045" lon="12.769904920037884"><ele>521.0</ele><time>2026-04-08T09:15:28.998Z</time></trkpt><trkpt lat="43.38788662029086" lon="12.769885321547697"><ele>521.0</ele><time>2026-04-08T09:15:39.998Z</time></trkpt><trkpt lat="43.38794940281434" lon="12.769853137362807"><ele>520.4285714285714</ele><time>2026-04-08T09:15:55Z</time></trkpt><trkpt lat="43.388013181218696" lon="12.7698160890927"><ele>519.8571428571429</ele><time>2026-04-08T09:16:06Z</time></trkpt><trkpt lat="43.38807749915576" lon="12.769776049452746"><ele>519.2857142857143</ele><time>2026-04-08T09:16:19Z</time></trkpt><trkpt lat="43.388132174050305" lon="12.769723913705628"><ele>518.7142857142858</ele><time>2026-04-08T09:16:30.999Z</time></trkpt><trkpt lat="43.38818690464356" lon="12.769676510735454"><ele>518.1428571428572</ele><time>2026-04-08T09:16:41.999Z</time></trkpt><trkpt lat="43.388234481095914" lon="12.76960426668321"><ele>517.5714285714286</ele><time>2026-04-08T09:16:51.999Z</time></trkpt><trkpt lat="43.388276352049616" lon="12.769533866658163"><ele>517.0</ele><time>2026-04-08T09:17:02.999Z</time></trkpt><trkpt lat="43.38833351977844" lon="12.769367378299563"><ele>518.5714285714286</ele><time>2026-04-08T09:18:52.999Z</time></trkpt><trkpt lat="43.388406018825194" lon="12.769338429841156"><ele>520.1428571428572</ele><time>2026-04-08T09:18:59.999Z</time></trkpt><trkpt lat="43.38844541044467" lon="12.769259404896925"><ele>521.7142857142858</ele><time>2026-04-08T09:19:08.999Z</time></trkpt><trkpt lat="43.38848029994091" lon="12.76918603129778"><ele>523.2857142857143</ele><time>2026-04-08T09:19:14.999Z</time></trkpt><trkpt lat="43.388517074393285" lon="12.769097638345768"><ele>524.8571428571429</ele><time>2026-04-08T09:19:21.999Z</time></trkpt><trkpt lat="43.388533606686806" lon="12.769010556092615"><ele>526.4285714285714</ele><time>2026-04-08T09:19:28.999Z</time></trkpt><trkpt lat="43.38855886737466" lon="12.76892798790967"><ele>528.0</ele><time>2026-04-08T09:19:36.999Z</time></trkpt><trkpt lat="43.388583029593" lon="12.768840095919165"><ele>528.0</ele><time>2026-04-08T09:19:44.998Z</time></trkpt><trkpt lat="43.38861959673083" lon="12.768762389120731"><ele>528.0</ele><time>2026-04-08T09:19:54.998Z</time></trkpt><trkpt lat="43.388682172265135" lon="12.76871675762393"><ele>528.0</ele><time>2026-04-08T09:20:02Z</time></trkpt><trkpt lat="43.388730309671324" lon="12.768650644857672"><ele>528.0</ele><time>2026-04-08T09:20:13Z</time></trkpt><trkpt lat="43.388768321430504" lon="12.768575321079286"><ele>528.0</ele><time>2026-04-08T09:20:23Z</time></trkpt><trkpt lat="43.38880731227862" lon="12.76848791207523"><ele>528.0</ele><time>2026-04-08T09:20:37.999Z</time></trkpt><trkpt lat="43.38884116022569" lon="12.768409593589444"><ele>528.0</ele><time>2026-04-08T09:20:49.999Z</time></trkpt><trkpt lat="43.388892034693605" lon="12.768313714721618"><ele>529.1428571428571</ele><time>2026-04-08T09:21:06.999Z</time></trkpt><trkpt lat="43.38895003743632" lon="12.768273889360579"><ele>530.2857142857143</ele><time>2026-04-08T09:21:17.999Z</time></trkpt><trkpt lat="43.388954012963595" lon="12.768186490690185"><ele>531.4285714285714</ele><time>2026-04-08T09:21:27.999Z</time></trkpt><trkpt lat="43.38899805267289" lon="12.768121588144037"><ele>532.5714285714286</ele><time>2026-04-08T09:21:43.998Z</time></trkpt><trkpt lat="43.38905545542866" lon="12.768065171087404"><ele>533.7142857142857</ele><time>2026-04-08T09:21:53.998Z</time></trkpt><trkpt lat="43.3891230923853" lon="12.768050948987607"><ele>534.8571428571429</ele><time>2026-04-08T09:21:58.998Z</time></trkpt><trkpt lat="43.38906861430432" lon="12.768004344781211"><ele>536.0</ele><time>2026-04-08T09:22:06Z</time></trkpt><trkpt lat="43.38909943601417" lon="12.767920300393694"><ele>536.0</ele><time>2026-04-08T09:22:27Z</time></trkpt><trkpt lat="43.38917384043554" lon="12.767864524746516"><ele>536.0</ele><time>2026-04-08T09:22:42Z</time></trkpt><trkpt lat="43.389175032788735" lon="12.767774962676716"><ele>536.0</ele><time>2026-04-08T09:22:53.999Z</time></trkpt><trkpt lat="43.389204102718956" lon="12.767855708596583"><ele>536.0</ele><time>2026-04-08T09:23:17.999Z</time></trkpt><trkpt lat="43.389224853618224" lon="12.767955913092287"><ele>536.0</ele><time>2026-04-08T09:23:35.999Z</time></trkpt><trkpt lat="43.38924947160704" lon="12.768039817129578"><ele>536.0</ele><time>2026-04-08T09:23:43.999Z</time></trkpt><trkpt lat="43.38926815462831" lon="12.768130572244935"><ele>536.0</ele><time>2026-04-08T09:23:50.999Z</time></trkpt><trkpt lat="43.38930293641512" lon="12.768057399989273"><ele>536.0</ele><time>2026-04-08T09:25:07.999Z</time></trkpt><trkpt lat="43.3892430766101" lon="12.768086108158268"><ele>536.0</ele><time>2026-04-08T09:28:04.999Z</time></trkpt><trkpt lat="43.38930600831721" lon="12.768081684572449"><ele>536.0</ele><time>2026-04-08T09:28:08.999Z</time></trkpt><trkpt lat="43.3892480664116" lon="12.768030771422994"><ele>536.0</ele><time>2026-04-08T09:29:57.999Z</time></trkpt><trkpt lat="43.38920633748899" lon="12.767952739140162"><ele>536.0</ele><time>2026-04-08T09:30:13.999Z</time></trkpt><trkpt lat="43.38919425625118" lon="12.767860904573096"><ele>536.0</ele><time>2026-04-08T09:30:19.999Z</time></trkpt><trkpt lat="43.3891974624347" lon="12.767773695166767"><ele>536.0</ele><time>2026-04-08T09:30:27.999Z</time></trkpt><trkpt lat="43.38919792663315" lon="12.767670917739995"><ele>536.7142857142858</ele><time>2026-04-08T09:30:34.999Z</time></trkpt><trkpt lat="43.38921324176952" lon="12.767583053957638"><ele>537.4285714285714</ele><time>2026-04-08T09:30:48.999Z</time></trkpt><trkpt lat="43.38924288279455" lon="12.767491635581175"><ele>538.1428571428571</ele><time>2026-04-08T09:31:07.999Z</time></trkpt><trkpt lat="43.3892695532581" lon="12.767402625281823"><ele>538.8571428571429</ele><time>2026-04-08T09:31:22.999Z</time></trkpt><trkpt lat="43.38927870071058" lon="12.767316548568651"><ele>539.5714285714286</ele><time>2026-04-08T09:31:31.999Z</time></trkpt><trkpt lat="43.38930340474606" lon="12.767228221435104"><ele>540.2857142857143</ele><time>2026-04-08T09:31:44.999Z</time></trkpt><trkpt lat="43.389303951866935" lon="12.767140438782889"><ele>541.0</ele><time>2026-04-08T09:31:55.999Z</time></trkpt><trkpt lat="43.38930487217399" lon="12.767052658238857"><ele>541.0000000000001</ele><time>2026-04-08T09:32:09.999Z</time></trkpt><trkpt lat="43.38931123936278" lon="12.766960403983955"><ele>541.0</ele><time>2026-04-08T09:32:18.999Z</time></trkpt><trkpt lat="43.389310710603176" lon="12.766870607117127"><ele>541.0</ele><time>2026-04-08T09:32:28.999Z</time></trkpt><trkpt lat="43.38928760521339" lon="12.766769503353698"><ele>541.0</ele><time>2026-04-08T09:32:38Z</time></trkpt><trkpt lat="43.38925059422822" lon="12.76669367845742"><ele>541.0</ele><time>2026-04-08T09:32:48Z</time></trkpt><trkpt lat="43.38920697623337" lon="12.766616091783002"><ele>541.0000000000001</ele><time>2026-04-08T09:32:58Z</time></trkpt><trkpt lat="43.38917443974398" lon="12.766532590231133"><ele>541.0</ele><time>2026-04-08T09:33:08Z</time></trkpt><trkpt lat="43.38914361660479" lon="12.766456021016433"><ele>539.8571428571429</ele><time>2026-04-08T09:33:14Z</time></trkpt><trkpt lat="43.38910679392009" lon="12.766367935733596"><ele>538.7142857142858</ele><time>2026-04-08T09:33:23Z</time></trkpt><trkpt lat="43.389081286440614" lon="12.766286674027429"><ele>537.5714285714286</ele><time>2026-04-08T09:33:30Z</time></trkpt><trkpt lat="43.389035487139225" lon="12.766215416748686"><ele>536.4285714285714</ele><time>2026-04-08T09:33:37Z</time></trkpt><trkpt lat="43.38900026353616" lon="12.766138193126055"><ele>535.2857142857142</ele><time>2026-04-08T09:33:43.999Z</time></trkpt><trkpt lat="43.38897907246468" lon="12.766054232946331"><ele>534.1428571428571</ele><time>2026-04-08T09:33:52.999Z</time></trkpt><trkpt lat="43.389021921800136" lon="12.765989130937546"><ele>533.0</ele><time>2026-04-08T09:34:04.999Z</time></trkpt><trkpt lat="43.38902256122146" lon="12.765891536630223"><ele>532.0</ele><time>2026-04-08T09:34:12.999Z</time></trkpt><trkpt lat="43.38900293156745" lon="12.76580471245875"><ele>531.0</ele><time>2026-04-08T09:34:21.999Z</time></trkpt><trkpt lat="43.388970638886434" lon="12.765724092412094"><ele>530.0</ele><time>2026-04-08T09:34:31.999Z</time></trkpt><trkpt lat="43.38893285155268" lon="12.765646359199124"><ele>529.0</ele><time>2026-04-08T09:34:49Z</time></trkpt><trkpt lat="43.388891820205686" lon="12.765574980633929"><ele>528.0</ele><time>2026-04-08T09:35:02Z</time></trkpt><trkpt lat="43.388848820337834" lon="12.76551040032933"><ele>527.0</ele><time>2026-04-08T09:35:17Z</time></trkpt><trkpt lat="43.38885667964953" lon="12.765420790969417"><ele>526.0</ele><time>2026-04-08T09:35:36Z</time></trkpt><trkpt lat="43.388908641006125" lon="12.765353244486604"><ele>526.0</ele><time>2026-04-08T09:35:50Z</time></trkpt><trkpt lat="43.388923620176264" lon="12.765268009185153"><ele>526.0</ele><time>2026-04-08T09:36:01.999Z</time></trkpt><trkpt lat="43.388969971906604" lon="12.76520007542145"><ele>526.0</ele><time>2026-04-08T09:36:12.999Z</time></trkpt><trkpt lat="43.388987119965066" lon="12.765097672438127"><ele>526.0</ele><time>2026-04-08T09:36:27.999Z</time></trkpt><trkpt lat="43.389000621376965" lon="12.765010641442254"><ele>526.0</ele><time>2026-04-08T09:36:36.999Z</time></trkpt><trkpt lat="43.3890137317948" lon="12.764921685313212"><ele>526.0</ele><time>2026-04-08T09:36:47.001Z</time></trkpt><trkpt lat="43.38899714927609" lon="12.764830533975237"><ele>526.0</ele><time>2026-04-08T09:36:59Z</time></trkpt><trkpt lat="43.38900879193152" lon="12.764744645120299"><ele>526.8571428571429</ele><time>2026-04-08T09:37:12Z</time></trkpt><trkpt lat="43.38899564399656" lon="12.764654529465831"><ele>527.7142857142857</ele><time>2026-04-08T09:37:23Z</time></trkpt><trkpt lat="43.38902002440056" lon="12.764573727196177"><ele>528.5714285714286</ele><time>2026-04-08T09:37:34Z</time></trkpt><trkpt lat="43.38904737689072" lon="12.764491803236753"><ele>529.4285714285714</ele><time>2026-04-08T09:37:44Z</time></trkpt><trkpt lat="43.3890757966545" lon="12.764409663804527"><ele>530.2857142857142</ele><time>2026-04-08T09:37:53Z</time></trkpt><trkpt lat="43.38909545517553" lon="12.76432128127244"><ele>531.1428571428571</ele><time>2026-04-08T09:38:02.999Z</time></trkpt><trkpt lat="43.38913020671257" lon="12.764238021868174"><ele>532.0</ele><time>2026-04-08T09:38:09.999Z</time></trkpt><trkpt lat="43.38916110981502" lon="12.764162447651788"><ele>533.4285714285714</ele><time>2026-04-08T09:38:17.999Z</time></trkpt><trkpt lat="43.38918284547228" lon="12.76407744539408"><ele>534.8571428571429</ele><time>2026-04-08T09:38:26.999Z</time></trkpt><trkpt lat="43.389199835428556" lon="12.763990626238275"><ele>536.2857142857142</ele><time>2026-04-08T09:38:35.999Z</time></trkpt><trkpt lat="43.38921694123814" lon="12.7638979016809"><ele>537.7142857142858</ele><time>2026-04-08T09:38:45.999Z</time></trkpt><trkpt lat="43.38924081720906" lon="12.763812604421744"><ele>539.1428571428571</ele><time>2026-04-08T09:38:55Z</time></trkpt><trkpt lat="43.389264715465615" lon="12.763724458605632"><ele>540.5714285714286</ele><time>2026-04-08T09:40:23.999Z</time></trkpt><trkpt lat="43.38926188676851" lon="12.763611027051297"><ele>542.0</ele><time>2026-04-08T09:41:46Z</time></trkpt><trkpt lat="43.38927546821117" lon="12.763522257458622"><ele>543.1428571428571</ele><time>2026-04-08T09:42:02.999Z</time></trkpt><trkpt lat="43.38927640166105" lon="12.763426436773338"><ele>544.2857142857143</ele><time>2026-04-08T09:42:11.999Z</time></trkpt><trkpt lat="43.389279748668066" lon="12.763331597175268"><ele>545.4285714285714</ele><time>2026-04-08T09:42:20.999Z</time></trkpt><trkpt lat="43.38930789622352" lon="12.763191486291745"><ele>546.5714285714286</ele><time>2026-04-08T09:42:45.999Z</time></trkpt><trkpt lat="43.389318697471865" lon="12.76310433149243"><ele>547.7142857142857</ele><time>2026-04-08T09:42:54.999Z</time></trkpt><trkpt lat="43.3893256503927" lon="12.763015195457715"><ele>548.8571428571429</ele><time>2026-04-08T09:43:04Z</time></trkpt><trkpt lat="43.38933180475645" lon="12.762927277768373"><ele>550.0</ele><time>2026-04-08T09:43:14Z</time></trkpt><trkpt lat="43.389338236893" lon="12.762823856786746"><ele>550.0</ele><time>2026-04-08T09:43:27Z</time></trkpt><trkpt lat="43.389342034282684" lon="12.762737156835682"><ele>550.0</ele><time>2026-04-08T09:43:42Z</time></trkpt><trkpt lat="43.389356619166705" lon="12.76265171325914"><ele>550.0</ele><time>2026-04-08T09:43:54.999Z</time></trkpt><trkpt lat="43.389367168080426" lon="12.76255754701029"><ele>550.0</ele><time>2026-04-08T09:44:12.999Z</time></trkpt><trkpt lat="43.38937478320517" lon="12.762468531068023"><ele>550.0</ele><time>2026-04-08T09:44:31.999Z</time></trkpt><trkpt lat="43.38937089185333" lon="12.762328401416296"><ele>550.0</ele><time>2026-04-08T09:44:59.999Z</time></trkpt><trkpt lat="43.389435504890066" lon="12.762233106287002"><ele>552.2857142857143</ele><time>2026-04-08T09:45:31Z</time></trkpt><trkpt lat="43.38946664717669" lon="12.762144471675796"><ele>554.5714285714286</ele><time>2026-04-08T09:45:58.999Z</time></trkpt><trkpt lat="43.38951892956086" lon="12.762095578197297"><ele>556.8571428571429</ele><time>2026-04-08T09:47:44Z</time></trkpt><trkpt lat="43.38945935266025" lon="12.762035735182915"><ele>559.1428571428571</ele><time>2026-04-08T09:47:54Z</time></trkpt><trkpt lat="43.38938885084661" lon="12.762031735217684"><ele>561.4285714285714</ele><time>2026-04-08T09:48:05Z</time></trkpt><trkpt lat="43.38932159345026" lon="12.762052376205835"><ele>563.7142857142858</ele><time>2026-04-08T09:48:11.999Z</time></trkpt><trkpt lat="43.38925754027883" lon="12.76208008909928"><ele>566.0</ele><time>2026-04-08T09:48:19.999Z</time></trkpt><trkpt lat="43.38918927736246" lon="12.762087490181957"><ele>566.0</ele><time>2026-04-08T09:48:25.999Z</time></trkpt><trkpt lat="43.389124031874786" lon="12.76209587114387"><ele>566.0</ele><time>2026-04-08T09:48:33.999Z</time></trkpt><trkpt lat="43.389058030608375" lon="12.762088193174538"><ele>566.0</ele><time>2026-04-08T09:48:40.999Z</time></trkpt><trkpt lat="43.38899314186904" lon="12.762087597010115"><ele>566.0</ele><time>2026-04-08T09:48:47.999Z</time></trkpt><trkpt lat="43.388928372613236" lon="12.762102682243215"><ele>566.0</ele><time>2026-04-08T09:48:53.999Z</time></trkpt><trkpt lat="43.38884995447339" lon="12.762110657243076"><ele>566.0</ele><time>2026-04-08T09:49:00.999Z</time></trkpt><trkpt lat="43.388787417343195" lon="12.762120820174118"><ele>566.0</ele><time>2026-04-08T09:49:07.999Z</time></trkpt><trkpt lat="43.38873922794656" lon="12.7621774206914"><ele>569.2857142857143</ele><time>2026-04-08T09:49:14.999Z</time></trkpt><trkpt lat="43.3886784203626" lon="12.762227719073133"><ele>572.5714285714287</ele><time>2026-04-08T09:49:22Z</time></trkpt><trkpt lat="43.388623922760075" lon="12.762286973527269"><ele>575.8571428571429</ele><time>2026-04-08T09:49:30Z</time></trkpt><trkpt lat="43.38858910473243" lon="12.76236281818544"><ele>579.1428571428571</ele><time>2026-04-08T09:49:40Z</time></trkpt><trkpt lat="43.38853056139088" lon="12.76240009302183"><ele>582.4285714285713</ele><time>2026-04-08T09:49:51Z</time></trkpt><trkpt lat="43.38849568337402" lon="12.762480062794474"><ele>585.7142857142857</ele><time>2026-04-08T09:50:06Z</time></trkpt><trkpt lat="43.388449091834595" lon="12.76255498002059"><ele>589.0</ele><time>2026-04-08T09:50:16.999Z</time></trkpt><trkpt lat="43.38841484825883" lon="12.762646006650701"><ele>586.1428571428571</ele><time>2026-04-08T09:50:26.999Z</time></trkpt><trkpt lat="43.388378598933556" lon="12.762725830949641"><ele>583.2857142857142</ele><time>2026-04-08T09:50:36.999Z</time></trkpt><trkpt lat="43.38833458155071" lon="12.762797933446762"><ele>580.4285714285714</ele><time>2026-04-08T09:50:44.999Z</time></trkpt><trkpt lat="43.38828840017918" lon="12.762875737134427"><ele>577.5714285714286</ele><time>2026-04-08T09:50:54.999Z</time></trkpt><trkpt lat="43.388229768471135" lon="12.762910803521944"><ele>574.7142857142858</ele><time>2026-04-08T09:51:00.999Z</time></trkpt><trkpt lat="43.38818120632121" lon="12.762977974219842"><ele>571.8571428571429</ele><time>2026-04-08T09:51:09.999Z</time></trkpt><trkpt lat="43.38813575210992" lon="12.763040895638575"><ele>569.0</ele><time>2026-04-08T09:51:16.999Z</time></trkpt><trkpt lat="43.38808728611334" lon="12.763103554749392"><ele>569.0000000000001</ele><time>2026-04-08T09:51:24.999Z</time></trkpt><trkpt lat="43.38803157356422" lon="12.763144901282233"><ele>569.0</ele><time>2026-04-08T09:51:33Z</time></trkpt><trkpt lat="43.387973647882255" lon="12.763197608268449"><ele>569.0</ele><time>2026-04-08T09:51:46Z</time></trkpt><trkpt lat="43.38792524383516" lon="12.763253209383254"><ele>569.0</ele><time>2026-04-08T09:51:53Z</time></trkpt><trkpt lat="43.38787076485304" lon="12.76332342873771"><ele>569.0</ele><time>2026-04-08T09:52:02Z</time></trkpt><trkpt lat="43.387846534710704" lon="12.763407153276729"><ele>569.0000000000001</ele><time>2026-04-08T09:52:13Z</time></trkpt><trkpt lat="43.38781489152135" lon="12.763492644885403"><ele>569.0</ele><time>2026-04-08T09:52:30.999Z</time></trkpt><trkpt lat="43.38777903059422" lon="12.763578665281631"><ele>570.4285714285714</ele><time>2026-04-08T09:52:44.999Z</time></trkpt><trkpt lat="43.387739688285" lon="12.76365923239232"><ele>571.8571428571429</ele><time>2026-04-08T09:52:52.999Z</time></trkpt><trkpt lat="43.38768967658265" lon="12.76371433744171"><ele>573.2857142857142</ele><time>2026-04-08T09:53:02.999Z</time></trkpt><trkpt lat="43.38763458980439" lon="12.763776739491147"><ele>574.7142857142858</ele><time>2026-04-08T09:53:11.999Z</time></trkpt><trkpt lat="43.3875701884785" lon="12.763830663777933"><ele>576.1428571428571</ele><time>2026-04-08T09:53:24.999Z</time></trkpt><trkpt lat="43.387506421865474" lon="12.763824357025268"><ele>577.5714285714286</ele><time>2026-04-08T09:53:35Z</time></trkpt><trkpt lat="43.38743812568292" lon="12.763826627553607"><ele>579.0</ele><time>2026-04-08T09:53:47Z</time></trkpt><trkpt lat="43.38738121283648" lon="12.763880205480124"><ele>578.9999999999999</ele><time>2026-04-08T09:53:58Z</time></trkpt><trkpt lat="43.38734934401104" lon="12.763972038709232"><ele>579.0</ele><time>2026-04-08T09:54:27Z</time></trkpt><trkpt lat="43.38730017164543" lon="12.764037630268534"><ele>579.0</ele><time>2026-04-08T09:54:36.999Z</time></trkpt><trkpt lat="43.387283995009085" lon="12.764124867602147"><ele>579.0</ele><time>2026-04-08T09:54:42.999Z</time></trkpt><trkpt lat="43.38726061207038" lon="12.764243349609448"><ele>579.0</ele><time>2026-04-08T09:55:01.999Z</time></trkpt><trkpt lat="43.387193125399975" lon="12.764217502239275"><ele>578.9999999999999</ele><time>2026-04-08T09:55:07.999Z</time></trkpt><trkpt lat="43.387131505837885" lon="12.764247560373521"><ele>579.0</ele><time>2026-04-08T09:55:15.999Z</time></trkpt><trkpt lat="43.38707206968863" lon="12.764295439384854"><ele>579.5714285714286</ele><time>2026-04-08T09:55:22.999Z</time></trkpt><trkpt lat="43.387006042315036" lon="12.764325973265835"><ele>580.1428571428571</ele><time>2026-04-08T09:55:28.999Z</time></trkpt><trkpt lat="43.386947709538504" lon="12.76437287333025"><ele>580.7142857142858</ele><time>2026-04-08T09:55:34.999Z</time></trkpt><trkpt lat="43.386903569693295" lon="12.76445485804422"><ele>581.2857142857142</ele><time>2026-04-08T09:55:43Z</time></trkpt><trkpt lat="43.38686326310638" lon="12.764527061034984"><ele>581.8571428571429</ele><time>2026-04-08T09:55:50Z</time></trkpt><trkpt lat="43.38682326195253" lon="12.764594783881181"><ele>582.4285714285714</ele><time>2026-04-08T09:55:56Z</time></trkpt><trkpt lat="43.38677297722567" lon="12.764672007831075"><ele>583.0</ele><time>2026-04-08T09:56:34.999Z</time></trkpt><trkpt lat="43.38672396305145" lon="12.764730541088888"><ele>583.0000000000001</ele><time>2026-04-08T09:56:40.999Z</time></trkpt><trkpt lat="43.386666508703016" lon="12.764776065909244"><ele>583.0</ele><time>2026-04-08T09:56:47.999Z</time></trkpt><trkpt lat="43.38661957307344" lon="12.764842777576773"><ele>583.0</ele><time>2026-04-08T09:56:54.999Z</time></trkpt><trkpt lat="43.38656773106977" lon="12.764892921725863"><ele>583.0</ele><time>2026-04-08T09:56:59.999Z</time></trkpt><trkpt lat="43.3865120346596" lon="12.764934897058245"><ele>583.0</ele><time>2026-04-08T09:57:07.999Z</time></trkpt><trkpt lat="43.38643864486494" lon="12.764966804830765"><ele>583.0000000000001</ele><time>2026-04-08T09:57:16.999Z</time></trkpt><trkpt lat="43.38637120963376" lon="12.764985441588262"><ele>583.0</ele><time>2026-04-08T09:57:22.999Z</time></trkpt><trkpt lat="43.38630606827647" lon="12.765016971793614"><ele>588.0000000000001</ele><time>2026-04-08T09:57:31.999Z</time></trkpt><trkpt lat="43.38624086452934" lon="12.765038138800035"><ele>593.0</ele><time>2026-04-08T09:57:41.999Z</time></trkpt><trkpt lat="43.38621411707414" lon="12.765119178537887"><ele>598.0</ele><time>2026-04-08T09:57:49.999Z</time></trkpt><trkpt lat="43.38620818380763" lon="12.765207391968117"><ele>603.0</ele><time>2026-04-08T09:57:58Z</time></trkpt><trkpt lat="43.386190413486794" lon="12.7652972319505"><ele>608.0</ele><time>2026-04-08T09:58:04Z</time></trkpt><trkpt lat="43.38618460433349" lon="12.765388652746033"><ele>613.0000000000001</ele><time>2026-04-08T09:58:10Z</time></trkpt><trkpt lat="43.386179749102126" lon="12.765484495897923"><ele>618.0</ele><time>2026-04-08T09:58:17Z</time></trkpt><trkpt lat="43.38619096964799" lon="12.765586451384747"><ele>618.0000000000001</ele><time>2026-04-08T09:58:24.999Z</time></trkpt><trkpt lat="43.38617183086188" lon="12.765685412825972"><ele>618.0</ele><time>2026-04-08T09:58:34.999Z</time></trkpt><trkpt lat="43.38612120304957" lon="12.765748757307891"><ele>618.0</ele><time>2026-04-08T09:58:41.999Z</time></trkpt><trkpt lat="43.38612571787836" lon="12.76586142588518"><ele>618.0</ele><time>2026-04-08T09:58:52.999Z</time></trkpt><trkpt lat="43.38609647291639" lon="12.765959538726438"><ele>618.0</ele><time>2026-04-08T09:59:03.999Z</time></trkpt><trkpt lat="43.386116721680445" lon="12.766043480314007"><ele>618.0000000000001</ele><time>2026-04-08T09:59:09.999Z</time></trkpt><trkpt lat="43.38607756361611" lon="12.766114318209624"><ele>618.0</ele><time>2026-04-08T09:59:15.999Z</time></trkpt><trkpt lat="43.3860615297952" lon="12.766205158544635"><ele>616.7142857142858</ele><time>2026-04-08T09:59:24.999Z</time></trkpt><trkpt lat="43.38608295812393" lon="12.766291241133533"><ele>615.4285714285714</ele><time>2026-04-08T09:59:34.999Z</time></trkpt><trkpt lat="43.38605170225542" lon="12.766368815176083"><ele>614.1428571428571</ele><time>2026-04-08T09:59:41.999Z</time></trkpt><trkpt lat="43.386009889163326" lon="12.766437840560743"><ele>612.8571428571429</ele><time>2026-04-08T09:59:53Z</time></trkpt><trkpt lat="43.385991418259245" lon="12.766539736024376"><ele>611.5714285714286</ele><time>2026-04-08T10:00:03Z</time></trkpt><trkpt lat="43.38598277654745" lon="12.76664368366395"><ele>610.2857142857143</ele><time>2026-04-08T10:00:23Z</time></trkpt><trkpt lat="43.38591550501139" lon="12.766677396418176"><ele>609.0</ele><time>2026-04-08T10:00:33Z</time></trkpt><trkpt lat="43.38587344329616" lon="12.766745726498458"><ele>609.0</ele><time>2026-04-08T10:00:43.999Z</time></trkpt><trkpt lat="43.38581617212314" lon="12.766793426819158"><ele>609.0</ele><time>2026-04-08T10:00:50.999Z</time></trkpt><trkpt lat="43.38575932376766" lon="12.766838164964962"><ele>609.0</ele><time>2026-04-08T10:01:01.999Z</time></trkpt><trkpt lat="43.385689620592856" lon="12.766851307281891"><ele>609.0</ele><time>2026-04-08T10:01:13.999Z</time></trkpt><trkpt lat="43.38561447914561" lon="12.766850871498267"><ele>609.0</ele><time>2026-04-08T10:01:21.999Z</time></trkpt><trkpt lat="43.385542143095904" lon="12.766842569765469"><ele>609.0</ele><time>2026-04-08T10:01:33.999Z</time></trkpt><trkpt lat="43.385487376720505" lon="12.766791831993183"><ele>609.0</ele><time>2026-04-08T10:01:42.999Z</time></trkpt><trkpt lat="43.38542832593729" lon="12.76675227242451"><ele>611.1666666666666</ele><time>2026-04-08T10:02:15Z</time></trkpt><trkpt lat="43.385354897289844" lon="12.766706456867857"><ele>613.3333333333334</ele><time>2026-04-08T10:02:26Z</time></trkpt><trkpt lat="43.38531577649156" lon="12.766637586533074"><ele>615.5</ele><time>2026-04-08T10:02:35Z</time></trkpt><trkpt lat="43.38526068810922" lon="12.766578627864085"><ele>617.6666666666667</ele><time>2026-04-08T10:02:44Z</time></trkpt><trkpt lat="43.385190223593185" lon="12.766539064494047"><ele>619.8333333333334</ele><time>2026-04-08T10:03:00.999Z</time></trkpt><trkpt lat="43.38511890548587" lon="12.766409851581052"><ele>622.0</ele><time>2026-04-08T10:03:22.999Z</time></trkpt><trkpt lat="43.38508579699966" lon="12.766322409612874"><ele>622.0</ele><time>2026-04-08T10:03:37.999Z</time></trkpt><trkpt lat="43.3850297944414" lon="12.766252791166433"><ele>622.0</ele><time>2026-04-08T10:04:18Z</time></trkpt><trkpt lat="43.3849708728979" lon="12.766208830004471"><ele>622.0</ele><time>2026-04-08T10:04:25Z</time></trkpt><trkpt lat="43.38492739524828" lon="12.766145235907109"><ele>622.0</ele><time>2026-04-08T10:04:35Z</time></trkpt><trkpt lat="43.38488082919414" lon="12.766073449310268"><ele>622.0</ele><time>2026-04-08T10:04:45Z</time></trkpt><trkpt lat="43.38483594461943" lon="12.766003155773998"><ele>622.0</ele><time>2026-04-08T10:04:52Z</time></trkpt><trkpt lat="43.384770586586484" lon="12.765981599109386"><ele>622.0</ele><time>2026-04-08T10:05:02.999Z</time></trkpt><trkpt lat="43.384704168889456" lon="12.765966169921601"><ele>628.1428571428571</ele><time>2026-04-08T10:05:13.999Z</time></trkpt><trkpt lat="43.384641086152875" lon="12.765928405741914"><ele>634.2857142857143</ele><time>2026-04-08T10:05:20.999Z</time></trkpt><trkpt lat="43.38457426004153" lon="12.765942134641545"><ele>640.4285714285714</ele><time>2026-04-08T10:05:48.999Z</time></trkpt><trkpt lat="43.38451375382003" lon="12.765898114380246"><ele>646.5714285714286</ele><time>2026-04-08T10:06:04.999Z</time></trkpt><trkpt lat="43.38445336391367" lon="12.765928893748084"><ele>652.7142857142858</ele><time>2026-04-08T10:06:15Z</time></trkpt><trkpt lat="43.3843838671362" lon="12.765902094333438"><ele>658.8571428571429</ele><time>2026-04-08T10:06:25Z</time></trkpt><trkpt lat="43.38431221842681" lon="12.765920493519188"><ele>665.0</ele><time>2026-04-08T10:06:37Z</time></trkpt><trkpt lat="43.3842495677462" lon="12.765985688258782"><ele>665.0</ele><time>2026-04-08T10:07:05Z</time></trkpt><trkpt lat="43.38418332472482" lon="12.765992553478764"><ele>665.0</ele><time>2026-04-08T10:07:14.999Z</time></trkpt><trkpt lat="43.38412930170214" lon="12.766041386683701"><ele>665.0</ele><time>2026-04-08T10:07:21.999Z</time></trkpt><trkpt lat="43.38408516652134" lon="12.766116833575358"><ele>665.0</ele><time>2026-04-08T10:08:40Z</time></trkpt><trkpt lat="43.384014118359374" lon="12.766129093131063"><ele>665.0</ele><time>2026-04-08T10:08:52Z</time></trkpt><trkpt lat="43.383948831239834" lon="12.766109602952383"><ele>665.0</ele><time>2026-04-08T10:08:59.999Z</time></trkpt><trkpt lat="43.38388428149719" lon="12.766134913158423"><ele>665.0</ele><time>2026-04-08T10:09:07.999Z</time></trkpt><trkpt lat="43.38389607712943" lon="12.766253672556546"><ele>662.4285714285714</ele><time>2026-04-08T10:09:09.999Z</time></trkpt><trkpt lat="43.38388523016121" lon="12.766146959639798"><ele>659.8571428571429</ele><time>2026-04-08T10:09:23.999Z</time></trkpt><trkpt lat="43.38378885506583" lon="12.766136399884804"><ele>657.2857142857142</ele><time>2026-04-08T10:09:31.999Z</time></trkpt><trkpt lat="43.38376546008872" lon="12.766238093957162"><ele>654.7142857142858</ele><time>2026-04-08T10:09:41.999Z</time></trkpt><trkpt lat="43.383702532823705" lon="12.766269107640909"><ele>652.1428571428571</ele><time>2026-04-08T10:09:45.999Z</time></trkpt><trkpt lat="43.38363768971563" lon="12.766260859275338"><ele>649.5714285714286</ele><time>2026-04-08T10:09:54.999Z</time></trkpt><trkpt lat="43.38357440866564" lon="12.766269202834332"><ele>647.0</ele><time>2026-04-08T10:09:59.999Z</time></trkpt><trkpt lat="43.38351283802404" lon="12.766301241592004"><ele>647.0</ele><time>2026-04-08T10:10:06.999Z</time></trkpt><trkpt lat="43.3834366729152" lon="12.766320613482417"><ele>647.0</ele><time>2026-04-08T10:10:17.999Z</time></trkpt><trkpt lat="43.383373688487026" lon="12.766338170180555"><ele>647.0</ele><time>2026-04-08T10:10:26.999Z</time></trkpt><trkpt lat="43.38331790898294" lon="12.766296943959873"><ele>647.0</ele><time>2026-04-08T10:10:32.999Z</time></trkpt><trkpt lat="43.38324933276698" lon="12.766296289792459"><ele>647.0</ele><time>2026-04-08T10:10:41.999Z</time></trkpt><trkpt lat="43.383178700762876" lon="12.766301345023699"><ele>647.0</ele><time>2026-04-08T10:10:50.999Z</time></trkpt><trkpt lat="43.383106137464566" lon="12.766316209198587"><ele>647.0</ele><time>2026-04-08T10:10:58.999Z</time></trkpt><trkpt lat="43.383043751957096" lon="12.766304058107798"><ele>646.4285714285714</ele><time>2026-04-08T10:11:08.999Z</time></trkpt><trkpt lat="43.38297408840577" lon="12.766280388953296"><ele>645.8571428571429</ele><time>2026-04-08T10:11:17.999Z</time></trkpt><trkpt lat="43.382903916160004" lon="12.766284909143945"><ele>645.2857142857142</ele><time>2026-04-08T10:11:28.999Z</time></trkpt><trkpt lat="43.382835426708006" lon="12.766263216752963"><ele>644.7142857142858</ele><time>2026-04-08T10:11:38.999Z</time></trkpt><trkpt lat="43.38276850296919" lon="12.766247186169162"><ele>644.1428571428572</ele><time>2026-04-08T10:11:46.999Z</time></trkpt><trkpt lat="43.382683948558764" lon="12.766199024764628"><ele>643.5714285714286</ele><time>2026-04-08T10:11:56.999Z</time></trkpt><trkpt lat="43.38262588609004" lon="12.766155929052484"><ele>643.0</ele><time>2026-04-08T10:12:06.999Z</time></trkpt><trkpt lat="43.38258817922454" lon="12.766085157947336"><ele>643.0</ele><time>2026-04-08T10:12:14.999Z</time></trkpt><trkpt lat="43.38251917176787" lon="12.766071239815247"><ele>643.0</ele><time>2026-04-08T10:12:22.999Z</time></trkpt><trkpt lat="43.382454142485294" lon="12.766046991988576"><ele>643.0</ele><time>2026-04-08T10:12:31Z</time></trkpt><trkpt lat="43.38238897075102" lon="12.766024916840466"><ele>643.0</ele><time>2026-04-08T10:12:41Z</time></trkpt><trkpt lat="43.38232539088741" lon="12.765973224235474"><ele>643.0</ele><time>2026-04-08T10:12:49Z</time></trkpt><trkpt lat="43.382268518813305" lon="12.765926429894165"><ele>643.0</ele><time>2026-04-08T10:12:58Z</time></trkpt><trkpt lat="43.38220367148086" lon="12.765894629165718"><ele>643.0</ele><time>2026-04-08T10:13:05Z</time></trkpt><trkpt lat="43.382142192051994" lon="12.765870084596612"><ele>645.2857142857142</ele><time>2026-04-08T10:13:14Z</time></trkpt><trkpt lat="43.38208699449097" lon="12.765825084959246"><ele>647.5714285714287</ele><time>2026-04-08T10:13:21Z</time></trkpt><trkpt lat="43.38201621837721" lon="12.765774110292034"><ele>649.8571428571429</ele><time>2026-04-08T10:13:32.999Z</time></trkpt><trkpt lat="43.38196394538591" lon="12.765722419717703"><ele>652.1428571428571</ele><time>2026-04-08T10:13:38.999Z</time></trkpt><trkpt lat="43.38189939135828" lon="12.76562819427894"><ele>654.4285714285713</ele><time>2026-04-08T10:15:53Z</time></trkpt><trkpt lat="43.38188579335236" lon="12.76554008808475"><ele>656.7142857142858</ele><time>2026-04-08T10:15:58.999Z</time></trkpt><trkpt lat="43.38184615050965" lon="12.765458902268485"><ele>659.0</ele><time>2026-04-08T10:16:08.999Z</time></trkpt><trkpt lat="43.381812717943895" lon="12.765383873699609"><ele>659.0</ele><time>2026-04-08T10:16:16.999Z</time></trkpt><trkpt lat="43.381775112424165" lon="12.76530809249678"><ele>659.0</ele><time>2026-04-08T10:16:25.999Z</time></trkpt><trkpt lat="43.38171798603376" lon="12.765267445159926"><ele>659.0</ele><time>2026-04-08T10:16:33.999Z</time></trkpt><trkpt lat="43.38168391316731" lon="12.765186689712873"><ele>659.0</ele><time>2026-04-08T10:17:37Z</time></trkpt><trkpt lat="43.38162430227383" lon="12.765153311009554"><ele>659.0</ele><time>2026-04-08T10:17:44Z</time></trkpt><trkpt lat="43.381556496115444" lon="12.76512140385615"><ele>659.0</ele><time>2026-04-08T10:17:54Z</time></trkpt><trkpt lat="43.38149661878558" lon="12.765086667831342"><ele>659.0</ele><time>2026-04-08T10:18:00.999Z</time></trkpt><trkpt lat="43.38143229931121" lon="12.765030975527985"><ele>662.1428571428572</ele><time>2026-04-08T10:18:09.999Z</time></trkpt><trkpt lat="43.38136508890159" lon="12.764985268986896"><ele>665.2857142857142</ele><time>2026-04-08T10:18:15.999Z</time></trkpt><trkpt lat="43.38130046356382" lon="12.764981662138304"><ele>668.4285714285714</ele><time>2026-04-08T10:18:28.999Z</time></trkpt><trkpt lat="43.38123730604822" lon="12.764968368223881"><ele>671.5714285714287</ele><time>2026-04-08T10:18:36.999Z</time></trkpt><trkpt lat="43.381172054362374" lon="12.764965355452732"><ele>674.7142857142858</ele><time>2026-04-08T10:18:47.999Z</time></trkpt><trkpt lat="43.38110902847003" lon="12.764999667955852"><ele>677.8571428571429</ele><time>2026-04-08T10:18:54.999Z</time></trkpt><trkpt lat="43.381040082305184" lon="12.765009011256762"><ele>681.0</ele><time>2026-04-08T10:19:04Z</time></trkpt><trkpt lat="43.38096345116725" lon="12.765006984798816"><ele>681.0000000000001</ele><time>2026-04-08T10:19:14Z</time></trkpt><trkpt lat="43.38090057539593" lon="12.764976642101116"><ele>681.0</ele><time>2026-04-08T10:19:21Z</time></trkpt><trkpt lat="43.380838271423755" lon="12.764935404909517"><ele>681.0</ele><time>2026-04-08T10:19:31Z</time></trkpt><trkpt lat="43.38079075693294" lon="12.764865586200662"><ele>681.0</ele><time>2026-04-08T10:19:38.999Z</time></trkpt><trkpt lat="43.380768389261924" lon="12.764778520663624"><ele>681.0</ele><time>2026-04-08T10:19:48.999Z</time></trkpt><trkpt lat="43.380774283545826" lon="12.764679312314259"><ele>681.0000000000001</ele><time>2026-04-08T10:19:58.999Z</time></trkpt><trkpt lat="43.38076754716533" lon="12.764589929996312"><ele>681.0</ele><time>2026-04-08T10:20:04.999Z</time></trkpt><trkpt lat="43.38074794830117" lon="12.764495655083614"><ele>681.0000000000001</ele><time>2026-04-08T10:20:13.999Z</time></trkpt><trkpt lat="43.3807365777255" lon="12.764404276955393"><ele>681.0</ele><time>2026-04-08T10:20:20.999Z</time></trkpt><trkpt lat="43.38070541914061" lon="12.764327794580991"><ele>681.0</ele><time>2026-04-08T10:20:26.999Z</time></trkpt><trkpt lat="43.38065964858098" lon="12.764242061535972"><ele>681.0</ele><time>2026-04-08T10:20:34.999Z</time></trkpt><trkpt lat="43.38061853772141" lon="12.76416134944446"><ele>681.0</ele><time>2026-04-08T10:20:41.999Z</time></trkpt><trkpt lat="43.3806117683937" lon="12.764073218413024"><ele>681.0000000000001</ele><time>2026-04-08T10:20:48.999Z</time></trkpt><trkpt lat="43.38061237246019" lon="12.763977449028145"><ele>681.0</ele><time>2026-04-08T10:20:56Z</time></trkpt><trkpt lat="43.38059968889595" lon="12.763890158044825"><ele>682.4285714285714</ele><time>2026-04-08T10:21:04Z</time></trkpt><trkpt lat="43.38057085366923" lon="12.763801872007567"><ele>683.8571428571429</ele><time>2026-04-08T10:21:09Z</time></trkpt><trkpt lat="43.380523076355324" lon="12.763737108969206"><ele>685.2857142857142</ele><time>2026-04-08T10:21:15Z</time></trkpt><trkpt lat="43.38047981449575" lon="12.763665568958995"><ele>686.7142857142858</ele><time>2026-04-08T10:21:22Z</time></trkpt><trkpt lat="43.38043745737662" lon="12.763601333707843"><ele>688.1428571428571</ele><time>2026-04-08T10:21:28Z</time></trkpt><trkpt lat="43.38041752827575" lon="12.76350627520462"><ele>689.5714285714286</ele><time>2026-04-08T10:21:32Z</time></trkpt><trkpt lat="43.380400673196846" lon="12.763415098732226"><ele>691.0</ele><time>2026-04-08T10:21:42Z</time></trkpt><trkpt lat="43.380358048325114" lon="12.763347341927533"><ele>690.9999999999999</ele><time>2026-04-08T10:21:48Z</time></trkpt><trkpt lat="43.38029423331737" lon="12.763279574640247"><ele>691.0</ele><time>2026-04-08T10:21:55Z</time></trkpt><trkpt lat="43.380243995919336" lon="12.763224817149945"><ele>691.0</ele><time>2026-04-08T10:22:00Z</time></trkpt><trkpt lat="43.38017628405363" lon="12.76319889285953"><ele>691.0</ele><time>2026-04-08T10:22:07Z</time></trkpt><trkpt lat="43.38010557266123" lon="12.76319965375931"><ele>691.0</ele><time>2026-04-08T10:22:15.999Z</time></trkpt><trkpt lat="43.38004823824294" lon="12.763159286252655"><ele>690.9999999999999</ele><time>2026-04-08T10:22:22.999Z</time></trkpt><trkpt lat="43.38001888075586" lon="12.763076051713295"><ele>691.0</ele><time>2026-04-08T10:22:31.999Z</time></trkpt><trkpt lat="43.380036553591445" lon="12.762984968456339"><ele>690.9999999999999</ele><time>2026-04-08T10:22:37.999Z</time></trkpt><trkpt lat="43.380036169993964" lon="12.762894264493976"><ele>691.0</ele><time>2026-04-08T10:22:45.999Z</time></trkpt><trkpt lat="43.38004949146897" lon="12.762806676318823"><ele>691.0</ele><time>2026-04-08T10:22:52.999Z</time></trkpt><trkpt lat="43.38008294848221" lon="12.76272745843431"><ele>691.0</ele><time>2026-04-08T10:23:02Z</time></trkpt><trkpt lat="43.380050312209704" lon="12.762642023465627"><ele>691.0</ele><time>2026-04-08T10:23:04Z</time></trkpt><trkpt lat="43.38003995379286" lon="12.762549908059793"><ele>690.9999999999999</ele><time>2026-04-08T10:23:10Z</time></trkpt><trkpt lat="43.37997299716722" lon="12.762513656178426"><ele>691.0</ele><time>2026-04-08T10:23:16Z</time></trkpt><trkpt lat="43.37992077327777" lon="12.762582066244496"><ele>690.9999999999999</ele><time>2026-04-08T10:23:22Z</time></trkpt><trkpt lat="43.37985568020281" lon="12.762577444236388"><ele>691.0</ele><time>2026-04-08T10:23:28Z</time></trkpt><trkpt lat="43.37978401628259" lon="12.762597130119188"><ele>691.0</ele><time>2026-04-08T10:23:32Z</time></trkpt><trkpt lat="43.379778834069306" lon="12.762689162354148"><ele>691.0</ele><time>2026-04-08T10:23:36Z</time></trkpt><trkpt lat="43.37972800481265" lon="12.762774282493952"><ele>691.0</ele><time>2026-04-08T10:23:46Z</time></trkpt><trkpt lat="43.37965463093124" lon="12.762800799880424"><ele>690.9999999999999</ele><time>2026-04-08T10:23:53Z</time></trkpt><trkpt lat="43.379620912127166" lon="12.762906144794677"><ele>691.0</ele><time>2026-04-08T10:24:00Z</time></trkpt><trkpt lat="43.37956149983079" lon="12.762952321093538"><ele>695.8571428571428</ele><time>2026-04-08T10:24:04Z</time></trkpt><trkpt lat="43.3795408370681" lon="12.763034630456785"><ele>700.7142857142857</ele><time>2026-04-08T10:24:14Z</time></trkpt><trkpt lat="43.379492341024516" lon="12.76311813635437"><ele>705.5714285714286</ele><time>2026-04-08T10:24:24Z</time></trkpt><trkpt lat="43.37945036225824" lon="12.763193412011974"><ele>710.4285714285713</ele><time>2026-04-08T10:24:31.999Z</time></trkpt><trkpt lat="43.37939528049141" lon="12.763255619660894"><ele>715.2857142857143</ele><time>2026-04-08T10:24:44.999Z</time></trkpt><trkpt lat="43.37941772952746" lon="12.763345295998564"><ele>720.1428571428571</ele><time>2026-04-08T10:29:16Z</time></trkpt><trkpt lat="43.379470663776374" lon="12.76329350559265"><ele>725.0</ele><time>2026-04-08T10:30:26.999Z</time></trkpt><trkpt lat="43.37940009358397" lon="12.763362281847007"><ele>725.0</ele><time>2026-04-08T10:41:48.999Z</time></trkpt><trkpt lat="43.3794783615759" lon="12.763290891978981"><ele>725.0</ele><time>2026-04-08T10:43:34.999Z</time></trkpt></trkseg><trkseg><trkpt lat="43.37879948787706" lon="12.763912864041295"><ele>711.0</ele><time>2026-04-08T11:05:45.936Z</time></trkpt><trkpt lat="43.378733564208616" lon="12.76388428175148"><ele>711.0</ele><time>2026-04-08T11:05:47.017Z</time></trkpt><trkpt lat="43.37867841728206" lon="12.763828353409762"><ele>711.0</ele><time>2026-04-08T11:06:00.001Z</time></trkpt><trkpt lat="43.378629031103436" lon="12.763760387832"><ele>711.0</ele><time>2026-04-08T11:06:09.001Z</time></trkpt><trkpt lat="43.37854200103795" lon="12.763688635374942"><ele>711.0</ele><time>2026-04-08T11:06:16Z</time></trkpt><trkpt lat="43.378477564852446" lon="12.763600556689527"><ele>711.0</ele><time>2026-04-08T11:06:20Z</time></trkpt><trkpt lat="43.37841363061932" lon="12.763592455544494"><ele>711.0</ele><time>2026-04-08T11:06:29Z</time></trkpt><trkpt lat="43.378347037112974" lon="12.763579648375137"><ele>711.0</ele><time>2026-04-08T11:06:37.999Z</time></trkpt><trkpt lat="43.37827232564022" lon="12.76360194635056"><ele>711.0</ele><time>2026-04-08T11:06:43.999Z</time></trkpt><trkpt lat="43.378201747965036" lon="12.76364235066068"><ele>711.0</ele><time>2026-04-08T11:06:51.999Z</time></trkpt><trkpt lat="43.37814932300479" lon="12.7636966842646"><ele>711.0</ele><time>2026-04-08T11:06:59.999Z</time></trkpt><trkpt lat="43.37809092604197" lon="12.763755070873973"><ele>711.0</ele><time>2026-04-08T11:07:07.999Z</time></trkpt><trkpt lat="43.37802152726608" lon="12.763759592710498"><ele>711.0</ele><time>2026-04-08T11:07:44.998Z</time></trkpt><trkpt lat="43.37795548421502" lon="12.76377308205109"><ele>710.5714285714286</ele><time>2026-04-08T11:07:51.998Z</time></trkpt><trkpt lat="43.3778810178453" lon="12.763776419853171"><ele>710.1428571428571</ele><time>2026-04-08T11:08:04Z</time></trkpt><trkpt lat="43.37781605927271" lon="12.763762339391205"><ele>709.7142857142858</ele><time>2026-04-08T11:08:19Z</time></trkpt><trkpt lat="43.37775622881218" lon="12.76372590200436"><ele>709.2857142857142</ele><time>2026-04-08T11:08:32Z</time></trkpt><trkpt lat="43.37770536497283" lon="12.763663396141782"><ele>708.8571428571428</ele><time>2026-04-08T11:08:40.999Z</time></trkpt><trkpt lat="43.377628396218945" lon="12.763641320318774"><ele>708.4285714285714</ele><time>2026-04-08T11:08:58.999Z</time></trkpt><trkpt lat="43.37757219427856" lon="12.763582197236833"><ele>708.0</ele><time>2026-04-08T11:09:10.999Z</time></trkpt><trkpt lat="43.37749417201567" lon="12.763511080323008"><ele>708.0</ele><time>2026-04-08T11:09:34.999Z</time></trkpt><trkpt lat="43.37746272127988" lon="12.763418921321147"><ele>708.0</ele><time>2026-04-08T11:09:48.998Z</time></trkpt><trkpt lat="43.37740723732955" lon="12.763345131134344"><ele>708.0</ele><time>2026-04-08T11:09:58.998Z</time></trkpt><trkpt lat="43.377473067834146" lon="12.763370420063925"><ele>708.0</ele><time>2026-04-08T11:10:27Z</time></trkpt><trkpt lat="43.37741946150355" lon="12.763418744903099"><ele>708.0</ele><time>2026-04-08T11:10:39.999Z</time></trkpt><trkpt lat="43.37742199684969" lon="12.763515272912722"><ele>708.0</ele><time>2026-04-08T11:10:47.999Z</time></trkpt><trkpt lat="43.37735828486684" lon="12.763501309882056"><ele>708.0</ele><time>2026-04-08T11:11:02.999Z</time></trkpt><trkpt lat="43.377286773903016" lon="12.763601589567546"><ele>708.0</ele><time>2026-04-08T11:11:05.999Z</time></trkpt><trkpt lat="43.37744808451522" lon="12.763629666539334"><ele>708.0</ele><time>2026-04-08T11:11:07.999Z</time></trkpt><trkpt lat="43.37744614327734" lon="12.763723441384352"><ele>708.0</ele><time>2026-04-08T11:11:18.999Z</time></trkpt><trkpt lat="43.37740244711156" lon="12.763798921840683"><ele>708.0</ele><time>2026-04-08T11:11:27.999Z</time></trkpt><trkpt lat="43.3774217511059" lon="12.763889597347829"><ele>708.0</ele><time>2026-04-08T11:11:35.999Z</time></trkpt><trkpt lat="43.37735803496478" lon="12.763920468780666"><ele>708.0</ele><time>2026-04-08T11:11:40.999Z</time></trkpt><trkpt lat="43.37731148815647" lon="12.763996465640563"><ele>708.0</ele><time>2026-04-08T11:11:46.999Z</time></trkpt><trkpt lat="43.37725605393005" lon="12.764051079763767"><ele>708.0</ele><time>2026-04-08T11:11:57.998Z</time></trkpt><trkpt lat="43.37719278091347" lon="12.764070952795713"><ele>708.0</ele><time>2026-04-08T11:12:01.998Z</time></trkpt><trkpt lat="43.37714744275162" lon="12.764132940385458"><ele>708.0</ele><time>2026-04-08T11:12:08Z</time></trkpt><trkpt lat="43.37712572101722" lon="12.764215546288128"><ele>708.0</ele><time>2026-04-08T11:12:14Z</time></trkpt><trkpt lat="43.377115902274575" lon="12.764320332865159"><ele>708.0</ele><time>2026-04-08T11:12:23Z</time></trkpt><trkpt lat="43.377184706058245" lon="12.76432765629515"><ele>708.0</ele><time>2026-04-08T11:12:26Z</time></trkpt><trkpt lat="43.37725098427039" lon="12.764368571168466"><ele>705.6666666666666</ele><time>2026-04-08T11:12:32Z</time></trkpt><trkpt lat="43.37730884839942" lon="12.764421505543373"><ele>703.3333333333334</ele><time>2026-04-08T11:12:44Z</time></trkpt><trkpt lat="43.377308398327756" lon="12.764511657624436"><ele>701.0</ele><time>2026-04-08T11:12:50Z</time></trkpt><trkpt lat="43.377293163411764" lon="12.76461699304432"><ele>698.6666666666667</ele><time>2026-04-08T11:12:53.999Z</time></trkpt><trkpt lat="43.377303174172305" lon="12.764708504395125"><ele>696.3333333333334</ele><time>2026-04-08T11:13:00.999Z</time></trkpt><trkpt lat="43.37731514064142" lon="12.764837930952856"><ele>694.0</ele><time>2026-04-08T11:13:13.999Z</time></trkpt><trkpt lat="43.37739742698601" lon="12.764866613597103"><ele>694.0</ele><time>2026-04-08T11:13:18.999Z</time></trkpt><trkpt lat="43.37738789817" lon="12.764964668215843"><ele>694.0</ele><time>2026-04-08T11:13:23.999Z</time></trkpt><trkpt lat="43.37743257715238" lon="12.765032048057188"><ele>694.0</ele><time>2026-04-08T11:13:31.999Z</time></trkpt><trkpt lat="43.377395934916954" lon="12.765111255808257"><ele>694.0</ele><time>2026-04-08T11:13:38.999Z</time></trkpt><trkpt lat="43.377345755206086" lon="12.765193307430343"><ele>694.0</ele><time>2026-04-08T11:13:46.999Z</time></trkpt><trkpt lat="43.37727725411946" lon="12.76522813401444"><ele>694.0</ele><time>2026-04-08T11:13:51.999Z</time></trkpt><trkpt lat="43.37722201105633" lon="12.765287187787184"><ele>694.0</ele><time>2026-04-08T11:14:01.999Z</time></trkpt><trkpt lat="43.37716563053951" lon="12.765343622433468"><ele>697.7142857142858</ele><time>2026-04-08T11:14:13Z</time></trkpt><trkpt lat="43.377106164146795" lon="12.76538294669178"><ele>701.4285714285713</ele><time>2026-04-08T11:14:20Z</time></trkpt><trkpt lat="43.377038744357826" lon="12.76541959769429"><ele>705.1428571428571</ele><time>2026-04-08T11:14:28Z</time></trkpt><trkpt lat="43.37697425503649" lon="12.765449190416522"><ele>708.8571428571429</ele><time>2026-04-08T11:14:36Z</time></trkpt><trkpt lat="43.37691121075793" lon="12.765470435062792"><ele>712.5714285714287</ele><time>2026-04-08T11:14:44Z</time></trkpt><trkpt lat="43.37683662170609" lon="12.765487074693958"><ele>716.2857142857142</ele><time>2026-04-08T11:14:53Z</time></trkpt><trkpt lat="43.376775843206566" lon="12.765522816577786"><ele>720.0</ele><time>2026-04-08T11:14:57.999Z</time></trkpt><trkpt lat="43.3767133196732" lon="12.765583493265925"><ele>720.0</ele><time>2026-04-08T11:15:01.999Z</time></trkpt><trkpt lat="43.37677045267712" lon="12.765660000436117"><ele>720.0</ele><time>2026-04-08T11:15:05.999Z</time></trkpt><trkpt lat="43.37677200660311" lon="12.765754430992523"><ele>720.0</ele><time>2026-04-08T11:15:08.999Z</time></trkpt><trkpt lat="43.3768361380137" lon="12.765746019371068"><ele>720.0</ele><time>2026-04-08T11:15:13.999Z</time></trkpt><trkpt lat="43.376902489950474" lon="12.765748736412155"><ele>720.0</ele><time>2026-04-08T11:15:23.999Z</time></trkpt><trkpt lat="43.37696966656232" lon="12.765772502499562"><ele>720.0</ele><time>2026-04-08T11:15:37.999Z</time></trkpt><trkpt lat="43.37702582421299" lon="12.765821820204744"><ele>720.0</ele><time>2026-04-08T11:15:43.999Z</time></trkpt><trkpt lat="43.37705257411621" lon="12.765941078015254"><ele>720.7142857142857</ele><time>2026-04-08T11:16:03.999Z</time></trkpt><trkpt lat="43.377072095311355" lon="12.766031392204459"><ele>721.4285714285714</ele><time>2026-04-08T11:16:15.999Z</time></trkpt><trkpt lat="43.377080187525216" lon="12.76613279676237"><ele>722.1428571428571</ele><time>2026-04-08T11:16:25Z</time></trkpt><trkpt lat="43.37709182960018" lon="12.766219055820324"><ele>722.8571428571429</ele><time>2026-04-08T11:16:34Z</time></trkpt><trkpt lat="43.37710112256262" lon="12.766305090658252"><ele>723.5714285714287</ele><time>2026-04-08T11:16:44Z</time></trkpt><trkpt lat="43.37704302301218" lon="12.766351413277828"><ele>724.2857142857143</ele><time>2026-04-08T11:17:01Z</time></trkpt><trkpt lat="43.37701746959974" lon="12.766448818685367"><ele>725.0</ele><time>2026-04-08T11:17:08Z</time></trkpt><trkpt lat="43.377005913533026" lon="12.76654884124875"><ele>725.0</ele><time>2026-04-08T11:17:19.999Z</time></trkpt><trkpt lat="43.37696115105497" lon="12.766639978717123"><ele>725.0</ele><time>2026-04-08T11:17:35.999Z</time></trkpt><trkpt lat="43.37697427683078" lon="12.766737057607967"><ele>725.0</ele><time>2026-04-08T11:18:02.999Z</time></trkpt><trkpt lat="43.376910581313275" lon="12.766747550547944"><ele>725.0</ele><time>2026-04-08T11:18:18.999Z</time></trkpt><trkpt lat="43.37690617496837" lon="12.766853508258924"><ele>725.0</ele><time>2026-04-08T11:18:27Z</time></trkpt><trkpt lat="43.37686580155162" lon="12.766929027633292"><ele>725.0</ele><time>2026-04-08T11:18:43Z</time></trkpt><trkpt lat="43.37684093695059" lon="12.767011262610595"><ele>725.0</ele><time>2026-04-08T11:18:54Z</time></trkpt><trkpt lat="43.37685909699058" lon="12.767103664042294"><ele>724.5714285714286</ele><time>2026-04-08T11:19:23Z</time></trkpt><trkpt lat="43.37681202759688" lon="12.767181010587569"><ele>724.1428571428571</ele><time>2026-04-08T11:19:35.999Z</time></trkpt><trkpt lat="43.37677788844142" lon="12.76729621830324"><ele>723.7142857142858</ele><time>2026-04-08T11:19:58.999Z</time></trkpt><trkpt lat="43.376776450395" lon="12.76738756013453"><ele>723.2857142857142</ele><time>2026-04-08T11:20:17.999Z</time></trkpt><trkpt lat="43.37674182122119" lon="12.767469261698073"><ele>722.8571428571428</ele><time>2026-04-08T11:20:27.999Z</time></trkpt><trkpt lat="43.3767439663017" lon="12.767568824253482"><ele>722.4285714285714</ele><time>2026-04-08T11:20:41Z</time></trkpt><trkpt lat="43.37671508545562" lon="12.767652420214155"><ele>722.0</ele><time>2026-04-08T11:20:54Z</time></trkpt><trkpt lat="43.37665428985148" lon="12.767715531011945"><ele>722.0</ele><time>2026-04-08T11:21:13Z</time></trkpt><trkpt lat="43.37667668733656" lon="12.767808139833377"><ele>722.0</ele><time>2026-04-08T11:21:35Z</time></trkpt><trkpt lat="43.37673418615579" lon="12.767765370396548"><ele>722.0</ele><time>2026-04-08T11:21:40Z</time></trkpt><trkpt lat="43.37679720161968" lon="12.76778801449011"><ele>722.0</ele><time>2026-04-08T11:21:45.999Z</time></trkpt><trkpt lat="43.37686856627176" lon="12.767817359450675"><ele>722.0</ele><time>2026-04-08T11:21:54.999Z</time></trkpt><trkpt lat="43.37692953671031" lon="12.767857429135821"><ele>722.0</ele><time>2026-04-08T11:22:03.999Z</time></trkpt><trkpt lat="43.37692358290598" lon="12.767948247033821"><ele>722.0</ele><time>2026-04-08T11:22:10.999Z</time></trkpt><trkpt lat="43.3769613972316" lon="12.768026328065782"><ele>722.0</ele><time>2026-04-08T11:22:16.999Z</time></trkpt><trkpt lat="43.377007990244046" lon="12.76810488837817"><ele>722.0</ele><time>2026-04-08T11:22:26.999Z</time></trkpt><trkpt lat="43.37704755864831" lon="12.768175368376667"><ele>722.0</ele><time>2026-04-08T11:22:35.999Z</time></trkpt><trkpt lat="43.37707430969346" lon="12.768265407325316"><ele>722.0</ele><time>2026-04-08T11:22:42Z</time></trkpt><trkpt lat="43.377106155137355" lon="12.768350118017075"><ele>722.0</ele><time>2026-04-08T11:22:51Z</time></trkpt><trkpt lat="43.37714730219567" lon="12.768421523300383"><ele>722.0</ele><time>2026-04-08T11:22:56Z</time></trkpt><trkpt lat="43.37720686143266" lon="12.76845506936062"><ele>722.0</ele><time>2026-04-08T11:23:06Z</time></trkpt><trkpt lat="43.377264996219154" lon="12.768493447202546"><ele>719.8571428571429</ele><time>2026-04-08T11:23:16Z</time></trkpt><trkpt lat="43.3773116415335" lon="12.768571062065966"><ele>717.7142857142857</ele><time>2026-04-08T11:23:25Z</time></trkpt><trkpt lat="43.37737549068418" lon="12.76859125887094"><ele>715.5714285714286</ele><time>2026-04-08T11:23:33Z</time></trkpt><trkpt lat="43.377434917807605" lon="12.768624992247002"><ele>713.4285714285714</ele><time>2026-04-08T11:23:38.999Z</time></trkpt><trkpt lat="43.377467749168126" lon="12.76870025254813"><ele>711.2857142857142</ele><time>2026-04-08T11:23:46.999Z</time></trkpt><trkpt lat="43.37747968852454" lon="12.768791850011386"><ele>709.1428571428571</ele><time>2026-04-08T11:23:54.999Z</time></trkpt><trkpt lat="43.37750432670866" lon="12.768885712132299"><ele>707.0</ele><time>2026-04-08T11:24:03.999Z</time></trkpt><trkpt lat="43.37755678444382" lon="12.768953077301465"><ele>707.0</ele><time>2026-04-08T11:24:11.999Z</time></trkpt><trkpt lat="43.37762120252546" lon="12.76898727301774"><ele>707.0</ele><time>2026-04-08T11:24:18.999Z</time></trkpt><trkpt lat="43.37768509453228" lon="12.768975327561614"><ele>707.0</ele><time>2026-04-08T11:24:26.999Z</time></trkpt><trkpt lat="43.37775052717941" lon="12.768968345956338"><ele>707.0</ele><time>2026-04-08T11:24:36.999Z</time></trkpt><trkpt lat="43.37783560640482" lon="12.768960801530035"><ele>707.0</ele><time>2026-04-08T11:25:00Z</time></trkpt><trkpt lat="43.37791350640138" lon="12.7689636583382"><ele>707.0</ele><time>2026-04-08T11:25:19Z</time></trkpt><trkpt lat="43.377981085564734" lon="12.768970513666908"><ele>707.0</ele><time>2026-04-08T11:25:30Z</time></trkpt><trkpt lat="43.37804568606716" lon="12.76899797093514"><ele>703.2857142857143</ele><time>2026-04-08T11:25:38.999Z</time></trkpt><trkpt lat="43.37810352807617" lon="12.769041301498387"><ele>699.5714285714286</ele><time>2026-04-08T11:25:45.999Z</time></trkpt><trkpt lat="43.37816210487357" lon="12.769078192291689"><ele>695.8571428571429</ele><time>2026-04-08T11:25:52.999Z</time></trkpt><trkpt lat="43.378222345491" lon="12.769116472962628"><ele>692.1428571428571</ele><time>2026-04-08T11:25:59.999Z</time></trkpt><trkpt lat="43.37828531290289" lon="12.769136069640638"><ele>688.4285714285714</ele><time>2026-04-08T11:26:06.999Z</time></trkpt><trkpt lat="43.37834829763899" lon="12.769177493484447"><ele>684.7142857142858</ele><time>2026-04-08T11:26:13.999Z</time></trkpt><trkpt lat="43.37840828634264" lon="12.769227943744923"><ele>681.0</ele><time>2026-04-08T11:26:21.999Z</time></trkpt><trkpt lat="43.37847222947565" lon="12.769261399503273"><ele>681.0000000000001</ele><time>2026-04-08T11:26:31.999Z</time></trkpt><trkpt lat="43.37853138229133" lon="12.769306335998552"><ele>681.0</ele><time>2026-04-08T11:26:47.998Z</time></trkpt><trkpt lat="43.37858263256743" lon="12.769368752574426"><ele>681.0</ele><time>2026-04-08T11:26:59Z</time></trkpt><trkpt lat="43.37860707213401" lon="12.769449191087363"><ele>681.0</ele><time>2026-04-08T11:27:09Z</time></trkpt><trkpt lat="43.378603207395535" lon="12.769539424112894"><ele>681.0</ele><time>2026-04-08T11:27:19Z</time></trkpt><trkpt lat="43.37861667844656" lon="12.76962883701317"><ele>681.0000000000001</ele><time>2026-04-08T11:27:27Z</time></trkpt><trkpt lat="43.37862918125413" lon="12.769726359393486"><ele>681.0</ele><time>2026-04-08T11:27:40Z</time></trkpt><trkpt lat="43.37862719000809" lon="12.769820010537824"><ele>684.5714285714287</ele><time>2026-04-08T11:28:01.999Z</time></trkpt><trkpt lat="43.37862968864972" lon="12.769907292058468"><ele>688.1428571428571</ele><time>2026-04-08T11:28:11.999Z</time></trkpt><trkpt lat="43.378653510744364" lon="12.769991922400525"><ele>691.7142857142858</ele><time>2026-04-08T11:28:23.999Z</time></trkpt><trkpt lat="43.37868749428724" lon="12.77012138698059"><ele>695.2857142857143</ele><time>2026-04-08T11:29:03Z</time></trkpt><trkpt lat="43.3787032930184" lon="12.770205490896522"><ele>698.8571428571429</ele><time>2026-04-08T11:29:27Z</time></trkpt><trkpt lat="43.37865662576614" lon="12.770276477388588"><ele>702.4285714285714</ele><time>2026-04-08T11:29:56.999Z</time></trkpt><trkpt lat="43.378720048547684" lon="12.77033068784935"><ele>706.0</ele><time>2026-04-08T11:30:00.999Z</time></trkpt><trkpt lat="43.37878228972561" lon="12.770369974666895"><ele>707.7142857142857</ele><time>2026-04-08T11:30:03.999Z</time></trkpt><trkpt lat="43.37879557129177" lon="12.77047428673349"><ele>709.4285714285714</ele><time>2026-04-08T11:30:16.999Z</time></trkpt><trkpt lat="43.37883908190376" lon="12.770542409673181"><ele>711.1428571428571</ele><time>2026-04-08T11:30:27.999Z</time></trkpt><trkpt lat="43.378888328404024" lon="12.770602959252022"><ele>712.8571428571429</ele><time>2026-04-08T11:30:38.999Z</time></trkpt><trkpt lat="43.37895274919184" lon="12.770601811924358"><ele>714.5714285714287</ele><time>2026-04-08T11:30:44.999Z</time></trkpt><trkpt lat="43.37901538955126" lon="12.770635478203786"><ele>716.2857142857143</ele><time>2026-04-08T11:30:53.998Z</time></trkpt><trkpt lat="43.37909799189623" lon="12.770642698623206"><ele>718.0</ele><time>2026-04-08T11:31:08Z</time></trkpt><trkpt lat="43.37917427173551" lon="12.770637176043406"><ele>711.5714285714286</ele><time>2026-04-08T11:31:19Z</time></trkpt><trkpt lat="43.379255347062866" lon="12.770606965419843"><ele>705.1428571428571</ele><time>2026-04-08T11:31:28Z</time></trkpt><trkpt lat="43.379321354556915" lon="12.770635418241458"><ele>698.7142857142858</ele><time>2026-04-08T11:31:39Z</time></trkpt><trkpt lat="43.379345397855936" lon="12.770716876778067"><ele>692.2857142857142</ele><time>2026-04-08T11:31:47Z</time></trkpt><trkpt lat="43.37934599722039" lon="12.77080978718496"><ele>685.8571428571428</ele><time>2026-04-08T11:31:55.999Z</time></trkpt><trkpt lat="43.379388119330876" lon="12.770883601787848"><ele>679.4285714285714</ele><time>2026-04-08T11:32:01.999Z</time></trkpt><trkpt lat="43.37945815828129" lon="12.770916633264573"><ele>673.0</ele><time>2026-04-08T11:32:09.999Z</time></trkpt><trkpt lat="43.37952094047814" lon="12.770945096398437"><ele>673.0</ele><time>2026-04-08T11:32:17.999Z</time></trkpt><trkpt lat="43.379581424311255" lon="12.770971010553861"><ele>673.0</ele><time>2026-04-08T11:32:26.999Z</time></trkpt><trkpt lat="43.3796321320704" lon="12.771033513894308"><ele>673.0</ele><time>2026-04-08T11:32:33.999Z</time></trkpt><trkpt lat="43.3796772894525" lon="12.771104658084022"><ele>673.0</ele><time>2026-04-08T11:32:43.999Z</time></trkpt><trkpt lat="43.37970862315807" lon="12.771191045549534"><ele>673.0</ele><time>2026-04-08T11:32:52.999Z</time></trkpt><trkpt lat="43.37973448819986" lon="12.771276007181326"><ele>673.0</ele><time>2026-04-08T11:33:01.998Z</time></trkpt><trkpt lat="43.37974276524284" lon="12.771369077009627"><ele>673.0</ele><time>2026-04-08T11:33:09Z</time></trkpt><trkpt lat="43.379778270531915" lon="12.771444904549162"><ele>673.8571428571429</ele><time>2026-04-08T11:33:17Z</time></trkpt><trkpt lat="43.37981896501269" lon="12.771515136664478"><ele>674.7142857142857</ele><time>2026-04-08T11:33:26Z</time></trkpt><trkpt lat="43.37984193599652" lon="12.771609915668787"><ele>675.5714285714286</ele><time>2026-04-08T11:33:34Z</time></trkpt><trkpt lat="43.37986858225385" lon="12.771692419538576"><ele>676.4285714285714</ele><time>2026-04-08T11:33:43Z</time></trkpt><trkpt lat="43.379892954015574" lon="12.771773704666643"><ele>677.2857142857142</ele><time>2026-04-08T11:33:52Z</time></trkpt><trkpt lat="43.37991507649771" lon="12.771870766812398"><ele>678.1428571428571</ele><time>2026-04-08T11:34:07.999Z</time></trkpt><trkpt lat="43.379949398706145" lon="12.771951978111662"><ele>679.0</ele><time>2026-04-08T11:34:15.999Z</time></trkpt><trkpt lat="43.37995975100793" lon="12.772037854043761"><ele>679.0</ele><time>2026-04-08T11:34:24.999Z</time></trkpt><trkpt lat="43.37997456047167" lon="12.772137470387069"><ele>679.0</ele><time>2026-04-08T11:34:32.999Z</time></trkpt><trkpt lat="43.38000971050305" lon="12.772219355985396"><ele>679.0</ele><time>2026-04-08T11:34:42.999Z</time></trkpt><trkpt lat="43.38003761491498" lon="12.77230039573318"><ele>679.0</ele><time>2026-04-08T11:34:48.999Z</time></trkpt><trkpt lat="43.38005419968367" lon="12.772398387222163"><ele>679.0</ele><time>2026-04-08T11:34:56.999Z</time></trkpt><trkpt lat="43.38010641366839" lon="12.772449857458138"><ele>679.0</ele><time>2026-04-08T11:35:01.999Z</time></trkpt><trkpt lat="43.380158117903626" lon="12.772518998366335"><ele>679.0</ele><time>2026-04-08T11:35:09.998Z</time></trkpt><trkpt lat="43.38020713870649" lon="12.772573932177494"><ele>679.0</ele><time>2026-04-08T11:35:20Z</time></trkpt><trkpt lat="43.38025496685077" lon="12.772636214794911"><ele>679.0</ele><time>2026-04-08T11:35:29Z</time></trkpt><trkpt lat="43.38031318132061" lon="12.772677048916828"><ele>679.0</ele><time>2026-04-08T11:35:36Z</time></trkpt><trkpt lat="43.380384767500104" lon="12.77270481812735"><ele>679.0</ele><time>2026-04-08T11:35:50Z</time></trkpt><trkpt lat="43.38044240998131" lon="12.772749629789732"><ele>679.0</ele><time>2026-04-08T11:35:59.999Z</time></trkpt><trkpt lat="43.38051484959113" lon="12.772767116764413"><ele>679.0</ele><time>2026-04-08T11:36:07.999Z</time></trkpt><trkpt lat="43.380562969804394" lon="12.772837106196235"><ele>679.0</ele><time>2026-04-08T11:36:17.999Z</time></trkpt><trkpt lat="43.380571267114554" lon="12.772925699591758"><ele>675.5714285714286</ele><time>2026-04-08T11:36:25.999Z</time></trkpt><trkpt lat="43.38058638872936" lon="12.773015923509083"><ele>672.1428571428571</ele><time>2026-04-08T11:36:34.999Z</time></trkpt><trkpt lat="43.380607756676696" lon="12.773102490010084"><ele>668.7142857142858</ele><time>2026-04-08T11:37:00.999Z</time></trkpt><trkpt lat="43.38066254637643" lon="12.773156697511533"><ele>665.2857142857142</ele><time>2026-04-08T11:40:30.999Z</time></trkpt><trkpt lat="43.38062399921892" lon="12.773249143923486"><ele>661.8571428571429</ele><time>2026-04-08T11:40:57.999Z</time></trkpt><trkpt lat="43.38063522455483" lon="12.773335829610215"><ele>658.4285714285714</ele><time>2026-04-08T11:41:05.999Z</time></trkpt><trkpt lat="43.38063123216238" lon="12.773437721451367"><ele>655.0</ele><time>2026-04-08T11:41:12.999Z</time></trkpt><trkpt lat="43.38063271471242" lon="12.773540946607019"><ele>654.7142857142858</ele><time>2026-04-08T11:41:19.998Z</time></trkpt><trkpt lat="43.38062770383154" lon="12.773629375908223"><ele>654.4285714285714</ele><time>2026-04-08T11:41:28.998Z</time></trkpt><trkpt lat="43.3806306901294" lon="12.773731374212995"><ele>654.1428571428571</ele><time>2026-04-08T11:41:37Z</time></trkpt><trkpt lat="43.38063124892443" lon="12.773820271672562"><ele>653.8571428571429</ele><time>2026-04-08T11:41:43Z</time></trkpt><trkpt lat="43.38061011147464" lon="12.773914597627169"><ele>653.5714285714286</ele><time>2026-04-08T11:41:51Z</time></trkpt><trkpt lat="43.38061526468865" lon="12.774004485718578"><ele>653.2857142857143</ele><time>2026-04-08T11:41:59Z</time></trkpt><trkpt lat="43.38064322838911" lon="12.774082197665445"><ele>653.0</ele><time>2026-04-08T11:42:07Z</time></trkpt><trkpt lat="43.38067022877858" lon="12.774163592425323"><ele>653.0000000000001</ele><time>2026-04-08T11:42:16Z</time></trkpt><trkpt lat="43.38068436844788" lon="12.774254991284172"><ele>653.0</ele><time>2026-04-08T11:42:26.999Z</time></trkpt><trkpt lat="43.38069067981942" lon="12.774350177517002"><ele>653.0</ele><time>2026-04-08T11:42:37.999Z</time></trkpt><trkpt lat="43.38070620007409" lon="12.774435654127663"><ele>653.0</ele><time>2026-04-08T11:42:47.999Z</time></trkpt><trkpt lat="43.38071276485505" lon="12.774522041971737"><ele>653.0</ele><time>2026-04-08T11:42:58.999Z</time></trkpt><trkpt lat="43.38071616440716" lon="12.77461106303794"><ele>653.0000000000001</ele><time>2026-04-08T11:43:06.999Z</time></trkpt><trkpt lat="43.38066815114944" lon="12.774690592155252"><ele>653.0</ele><time>2026-04-08T11:43:14.999Z</time></trkpt><trkpt lat="43.38065556379921" lon="12.77477808192922"><ele>651.8571428571429</ele><time>2026-04-08T11:43:23.999Z</time></trkpt><trkpt lat="43.3806166820981" lon="12.774859001271032"><ele>650.7142857142858</ele><time>2026-04-08T11:43:32.998Z</time></trkpt><trkpt lat="43.38060668514801" lon="12.774948423347302"><ele>649.5714285714287</ele><time>2026-04-08T11:43:40Z</time></trkpt><trkpt lat="43.380582729117286" lon="12.775046780744434"><ele>648.4285714285714</ele><time>2026-04-08T11:43:50Z</time></trkpt><trkpt lat="43.380566450674486" lon="12.775142190699643"><ele>647.2857142857142</ele><time>2026-04-08T11:43:58Z</time></trkpt><trkpt lat="43.38052691564825" lon="12.775210127436155"><ele>646.1428571428572</ele><time>2026-04-08T11:44:05Z</time></trkpt><trkpt lat="43.380514615306495" lon="12.7753043685672"><ele>645.0</ele><time>2026-04-08T11:44:13Z</time></trkpt><trkpt lat="43.38049083969748" lon="12.775389125002398"><ele>652.0</ele><time>2026-04-08T11:44:19.999Z</time></trkpt><trkpt lat="43.38046259696931" lon="12.775471453891978"><ele>659.0</ele><time>2026-04-08T11:44:26.999Z</time></trkpt><trkpt lat="43.38046456336969" lon="12.775561789586764"><ele>666.0</ele><time>2026-04-08T11:44:38.999Z</time></trkpt><trkpt lat="43.38044804206448" lon="12.775648470640716"><ele>673.0</ele><time>2026-04-08T11:44:46.999Z</time></trkpt><trkpt lat="43.380431264088735" lon="12.775742466397173"><ele>680.0</ele><time>2026-04-08T11:44:52.999Z</time></trkpt><trkpt lat="43.38041604235351" lon="12.775835680471427"><ele>687.0</ele><time>2026-04-08T11:44:59.999Z</time></trkpt><trkpt lat="43.38040954408151" lon="12.775928398330263"><ele>694.0</ele><time>2026-04-08T11:45:09.999Z</time></trkpt><trkpt lat="43.3803518711961" lon="12.775963268259574"><ele>691.1428571428572</ele><time>2026-04-08T11:45:21.999Z</time></trkpt><trkpt lat="43.38036879780116" lon="12.776051394795623"><ele>688.2857142857142</ele><time>2026-04-08T11:45:29.998Z</time></trkpt><trkpt lat="43.38037803331357" lon="12.776143698341263"><ele>685.4285714285714</ele><time>2026-04-08T11:45:36.998Z</time></trkpt><trkpt lat="43.38039512068769" lon="12.77623928906268"><ele>682.5714285714287</ele><time>2026-04-08T11:45:46Z</time></trkpt><trkpt lat="43.38042126226942" lon="12.776331219867911"><ele>679.7142857142858</ele><time>2026-04-08T11:45:59Z</time></trkpt><trkpt lat="43.380445059256054" lon="12.776414178705924"><ele>676.8571428571429</ele><time>2026-04-08T11:46:10Z</time></trkpt><trkpt lat="43.38043202936994" lon="12.776517368282214"><ele>674.0</ele><time>2026-04-08T11:46:26.999Z</time></trkpt><trkpt lat="43.38043596118906" lon="12.776628236142816"><ele>674.0000000000001</ele><time>2026-04-08T11:46:39.999Z</time></trkpt><trkpt lat="43.380438445206586" lon="12.77673991066016"><ele>674.0</ele><time>2026-04-08T11:46:53.999Z</time></trkpt><trkpt lat="43.38042303038509" lon="12.77683573901791"><ele>674.0</ele><time>2026-04-08T11:47:04.999Z</time></trkpt><trkpt lat="43.380434207597716" lon="12.776937264170428"><ele>674.0</ele><time>2026-04-08T11:47:11.999Z</time></trkpt><trkpt lat="43.38041955715437" lon="12.777027245336617"><ele>674.0</ele><time>2026-04-08T11:47:20.999Z</time></trkpt><trkpt lat="43.38043211695199" lon="12.77711880410602"><ele>674.0000000000001</ele><time>2026-04-08T11:47:27.999Z</time></trkpt><trkpt lat="43.38044410277434" lon="12.777216888973932"><ele>674.0</ele><time>2026-04-08T11:47:35.998Z</time></trkpt><trkpt lat="43.38042193280857" lon="12.77730771484718"><ele>670.7142857142858</ele><time>2026-04-08T11:47:45.998Z</time></trkpt><trkpt lat="43.38035434985281" lon="12.777306505639702"><ele>667.4285714285714</ele><time>2026-04-08T11:47:54Z</time></trkpt><trkpt lat="43.380310754358" lon="12.777374176585665"><ele>664.1428571428571</ele><time>2026-04-08T11:48:02Z</time></trkpt><trkpt lat="43.38026473852206" lon="12.777438575158257"><ele>660.8571428571429</ele><time>2026-04-08T11:48:10Z</time></trkpt><trkpt lat="43.380195444034335" lon="12.7774883470699"><ele>657.5714285714286</ele><time>2026-04-08T11:48:18Z</time></trkpt><trkpt lat="43.38013900886676" lon="12.777542398117916"><ele>654.2857142857143</ele><time>2026-04-08T11:48:26Z</time></trkpt><trkpt lat="43.380086120782735" lon="12.777596698863467"><ele>651.0</ele><time>2026-04-08T11:48:32Z</time></trkpt><trkpt lat="43.380028876437216" lon="12.777648771057661"><ele>647.5714285714286</ele><time>2026-04-08T11:48:38.999Z</time></trkpt><trkpt lat="43.37997801443813" lon="12.777713914537944"><ele>644.1428571428571</ele><time>2026-04-08T11:48:46.999Z</time></trkpt><trkpt lat="43.37993298662577" lon="12.777776053571824"><ele>640.7142857142858</ele><time>2026-04-08T11:48:55.999Z</time></trkpt><trkpt lat="43.3798845870509" lon="12.777846187936312"><ele>637.2857142857142</ele><time>2026-04-08T11:49:04.999Z</time></trkpt><trkpt lat="43.379855867792664" lon="12.777931847396175"><ele>633.8571428571429</ele><time>2026-04-08T11:49:10.999Z</time></trkpt><trkpt lat="43.37981565181641" lon="12.77801336458802"><ele>630.4285714285714</ele><time>2026-04-08T11:49:17.999Z</time></trkpt><trkpt lat="43.37979326367241" lon="12.778100767053884"><ele>627.0</ele><time>2026-04-08T11:49:24.999Z</time></trkpt><trkpt lat="43.37977008833742" lon="12.778189322305582"><ele>627.0</ele><time>2026-04-08T11:49:31.999Z</time></trkpt><trkpt lat="43.37974038332551" lon="12.77828402393491"><ele>627.0</ele><time>2026-04-08T11:49:37.999Z</time></trkpt><trkpt lat="43.37972675503115" lon="12.778383480711437"><ele>627.0</ele><time>2026-04-08T11:49:44.998Z</time></trkpt><trkpt lat="43.37970724335951" lon="12.77847318146977"><ele>627.0</ele><time>2026-04-08T11:49:51.998Z</time></trkpt><trkpt lat="43.379690399657775" lon="12.778562294553495"><ele>627.0</ele><time>2026-04-08T11:49:59Z</time></trkpt><trkpt lat="43.379666256637314" lon="12.7786545221866"><ele>627.0</ele><time>2026-04-08T11:50:06Z</time></trkpt><trkpt lat="43.379651136023" lon="12.778741663383002"><ele>627.0</ele><time>2026-04-08T11:50:15Z</time></trkpt><trkpt lat="43.379629575664424" lon="12.778825804696458"><ele>631.6666666666666</ele><time>2026-04-08T11:50:24Z</time></trkpt><trkpt lat="43.37959790030991" lon="12.778908960097382"><ele>636.3333333333334</ele><time>2026-04-08T11:50:33Z</time></trkpt><trkpt lat="43.3795784907272" lon="12.77900254417045"><ele>641.0</ele><time>2026-04-08T11:50:46.999Z</time></trkpt><trkpt lat="43.379571357998074" lon="12.779129252110264"><ele>645.6666666666667</ele><time>2026-04-08T11:53:35.999Z</time></trkpt><trkpt lat="43.37949527796535" lon="12.779189804349333"><ele>650.3333333333334</ele><time>2026-04-08T11:53:55.998Z</time></trkpt><trkpt lat="43.37945753920409" lon="12.779272618010719"><ele>655.0</ele><time>2026-04-08T11:54:12Z</time></trkpt><trkpt lat="43.37943625914763" lon="12.779357120728978"><ele>655.0</ele><time>2026-04-08T11:54:26Z</time></trkpt><trkpt lat="43.379420590248806" lon="12.779441731624384"><ele>655.0</ele><time>2026-04-08T11:54:39Z</time></trkpt><trkpt lat="43.37938999571797" lon="12.779524578135675"><ele>655.0</ele><time>2026-04-08T11:54:53Z</time></trkpt><trkpt lat="43.37936338489858" lon="12.779603548256686"><ele>655.0</ele><time>2026-04-08T11:55:04.999Z</time></trkpt><trkpt lat="43.379323993282064" lon="12.779674228104668"><ele>655.0</ele><time>2026-04-08T11:55:15.999Z</time></trkpt><trkpt lat="43.379286677668944" lon="12.779749903331108"><ele>655.0</ele><time>2026-04-08T11:55:28.999Z</time></trkpt><trkpt lat="43.37925247221146" lon="12.779828708949962"><ele>655.0</ele><time>2026-04-08T11:55:39.999Z</time></trkpt><trkpt lat="43.37919434893448" lon="12.779893229113693"><ele>655.0</ele><time>2026-04-08T11:55:53.999Z</time></trkpt><trkpt lat="43.379144141185755" lon="12.779945864101329"><ele>655.0</ele><time>2026-04-08T11:56:04.998Z</time></trkpt><trkpt lat="43.37910281381217" lon="12.78001781631188"><ele>655.0</ele><time>2026-04-08T11:56:19Z</time></trkpt><trkpt lat="43.37905576053624" lon="12.7801137876098"><ele>655.0</ele><time>2026-04-08T11:56:34Z</time></trkpt><trkpt lat="43.3790041595823" lon="12.78016832336097"><ele>655.0</ele><time>2026-04-08T11:56:44Z</time></trkpt><trkpt lat="43.37895729545556" lon="12.780227048641102"><ele>655.0</ele><time>2026-04-08T11:56:55Z</time></trkpt><trkpt lat="43.378905488005095" lon="12.78029121912754"><ele>655.0</ele><time>2026-04-08T11:57:03.999Z</time></trkpt><trkpt lat="43.37881920598942" lon="12.780397823678006"><ele>656.2857142857143</ele><time>2026-04-08T11:57:12.999Z</time></trkpt><trkpt lat="43.378798844745724" lon="12.780482429615104"><ele>657.5714285714286</ele><time>2026-04-08T11:57:23.999Z</time></trkpt><trkpt lat="43.378778998085274" lon="12.780570302995063"><ele>658.8571428571429</ele><time>2026-04-08T11:57:31.999Z</time></trkpt><trkpt lat="43.37875911542546" lon="12.78065256068775"><ele>660.1428571428571</ele><time>2026-04-08T11:57:38.999Z</time></trkpt><trkpt lat="43.37874240521357" lon="12.780740390026093"><ele>661.4285714285714</ele><time>2026-04-08T11:57:44.999Z</time></trkpt><trkpt lat="43.378724740939134" lon="12.780828280730423"><ele>662.7142857142857</ele><time>2026-04-08T11:57:50.999Z</time></trkpt><trkpt lat="43.37870764361006" lon="12.780920918023781"><ele>664.0</ele><time>2026-04-08T11:57:58.999Z</time></trkpt><trkpt lat="43.37869845641682" lon="12.781023963712578"><ele>664.0</ele><time>2026-04-08T11:59:52.999Z</time></trkpt><trkpt lat="43.3786781070477" lon="12.781118832365916"><ele>664.0</ele><time>2026-04-08T12:00:04.999Z</time></trkpt><trkpt lat="43.37865452946885" lon="12.781204925732114"><ele>664.0</ele><time>2026-04-08T12:00:39Z</time></trkpt><trkpt lat="43.37867363722803" lon="12.78129402866795"><ele>664.0</ele><time>2026-04-08T12:00:50Z</time></trkpt><trkpt lat="43.3787105363481" lon="12.781369013190481"><ele>664.0</ele><time>2026-04-08T12:00:58Z</time></trkpt><trkpt lat="43.37872024318182" lon="12.781454918652507"><ele>664.0</ele><time>2026-04-08T12:01:07Z</time></trkpt><trkpt lat="43.378702075188386" lon="12.781539207079678"><ele>664.0</ele><time>2026-04-08T12:01:15Z</time></trkpt><trkpt lat="43.378678690397635" lon="12.781623801132266"><ele>664.0</ele><time>2026-04-08T12:01:21.999Z</time></trkpt><trkpt lat="43.37864647641732" lon="12.781710285527502"><ele>664.0</ele><time>2026-04-08T12:01:30.999Z</time></trkpt><trkpt lat="43.37861551482493" lon="12.781787412182346"><ele>664.0</ele><time>2026-04-08T12:01:38.999Z</time></trkpt><trkpt lat="43.37858075447112" lon="12.78187752614231"><ele>664.0</ele><time>2026-04-08T12:01:46.999Z</time></trkpt><trkpt lat="43.378541033668114" lon="12.781960988314399"><ele>664.0</ele><time>2026-04-08T12:01:54.999Z</time></trkpt><trkpt lat="43.37851104336367" lon="12.782041787043864"><ele>664.0</ele><time>2026-04-08T12:02:02.999Z</time></trkpt><trkpt lat="43.378502215686304" lon="12.782137692647765"><ele>664.0</ele><time>2026-04-08T12:02:10.999Z</time></trkpt><trkpt lat="43.37850066007976" lon="12.782229442928548"><ele>662.0</ele><time>2026-04-08T12:02:18.999Z</time></trkpt><trkpt lat="43.378487378568" lon="12.782317281434889"><ele>660.0</ele><time>2026-04-08T12:02:26.998Z</time></trkpt><trkpt lat="43.378462601563236" lon="12.782413194528152"><ele>658.0</ele><time>2026-04-08T12:02:38Z</time></trkpt><trkpt lat="43.378404872335445" lon="12.782476727362011"><ele>656.0</ele><time>2026-04-08T12:02:50Z</time></trkpt><trkpt lat="43.37833511013228" lon="12.782531962252362"><ele>654.0</ele><time>2026-04-08T12:03:03Z</time></trkpt><trkpt lat="43.37827099746912" lon="12.782539510676617"><ele>652.0</ele><time>2026-04-08T12:03:15Z</time></trkpt><trkpt lat="43.37820882245484" lon="12.782577305734836"><ele>650.0</ele><time>2026-04-08T12:03:21.999Z</time></trkpt><trkpt lat="43.37814207945483" lon="12.782609838854105"><ele>650.0</ele><time>2026-04-08T12:03:30.999Z</time></trkpt><trkpt lat="43.37808017935633" lon="12.782641948441155"><ele>650.0</ele><time>2026-04-08T12:03:42.999Z</time></trkpt><trkpt lat="43.37801186719368" lon="12.7826739892227"><ele>650.0</ele><time>2026-04-08T12:03:47.999Z</time></trkpt><trkpt lat="43.37794667407893" lon="12.782704316572028"><ele>650.0</ele><time>2026-04-08T12:03:53.999Z</time></trkpt><trkpt lat="43.37788799255285" lon="12.782735792133895"><ele>650.0</ele><time>2026-04-08T12:04:00.999Z</time></trkpt><trkpt lat="43.37781826340842" lon="12.782765407462438"><ele>650.0</ele><time>2026-04-08T12:04:08.999Z</time></trkpt><trkpt lat="43.37774832525335" lon="12.78278354754275"><ele>650.0</ele><time>2026-04-08T12:04:14.999Z</time></trkpt><trkpt lat="43.37768476463952" lon="12.782808052296819"><ele>629.0</ele><time>2026-04-08T12:04:21.999Z</time></trkpt><trkpt lat="43.37761853769905" lon="12.782824626065853"><ele>629.0</ele><time>2026-04-08T12:04:29.998Z</time></trkpt><trkpt lat="43.37754773315815" lon="12.782854078876612"><ele>629.0</ele><time>2026-04-08T12:04:38Z</time></trkpt><trkpt lat="43.37747956976635" lon="12.782854309430089"><ele>629.0</ele><time>2026-04-08T12:04:46Z</time></trkpt><trkpt lat="43.37741367626678" lon="12.782888054156444"><ele>629.0</ele><time>2026-04-08T12:04:57Z</time></trkpt></trkseg></trk></gpx>